Time,TemperatureF,DewpointF,PressureIn,WindDirection,WindDirectionDegrees,WindSpeedMPH,WindSpeedGustMPH,Humidity,HourlyPrecipIn,Conditions,Clouds,dailyrainin,SoftwareType,DateUTC
2013-03-31 00:00:00,47.8,43.9,29.90,SW,218,5.4,5.4,86,0.00,,FEW110,0.00,VWS V14.01,2013-03-31 05:00:00,
2013-03-31 00:02:00,47.8,43.9,29.90,SW,223,5.4,5.4,86,0.00,,FEW110,0.00,VWS V14.01,2013-03-31 05:02:00,
2013-03-31 00:03:00,47.8,43.9,29.90,SSW,200,4.9,6.3,86,0.00,,FEW110,0.00,VWS V14.01,2013-03-31 05:03:00,
2013-03-31 00:04:00,47.8,43.9,29.90,SSW,206,5.4,6.3,86,0.00,,FEW110,0.00,VWS V14.01,2013-03-31 05:04:00,
2013-03-31 00:05:00,47.8,43.9,29.90,SW,220,5.8,5.8,86,0.00,,FEW110,0.00,VWS V14.01,2013-03-31 05:05:00,
2013-03-31 00:07:00,47.8,43.9,29.90,SSW,212,4.0,5.4,86,0.00,,FEW110,0.00,VWS V14.01,2013-03-31 05:07:00,
2013-03-31 00:09:00,47.8,44.5,29.90,SSW,193,5.4,5.4,88,0.00,,FEW110,0.00,VWS V14.01,2013-03-31 05:09:00,
2013-03-31 00:10:00,47.8,44.5,29.90,SSW,205,4.5,5.4,88,0.00,,FEW110,0.00,VWS V14.01,2013-03-31 05:10:00,
2013-03-31 00:13:00,47.8,44.5,29.90,SSW,192,5.8,5.8,88,0.00,,FEW110,0.00,VWS V14.01,2013-03-31 05:13:00,
2013-03-31 00:15:00,48.0,44.6,29.90,SW,214,5.8,5.8,88,0.00,,FEW110,0.00,VWS V14.01,2013-03-31 05:15:00,
2013-03-31 00:18:00,48.0,44.6,29.90,SW,227,4.9,5.8,88,0.00,,FEW110,0.00,VWS V14.01,2013-03-31 05:18:00,
2013-03-31 00:20:00,48.0,44.6,29.90,SW,226,5.4,5.4,88,0.00,,FEW110,0.00,VWS V14.01,2013-03-31 05:20:00,
2013-03-31 00:21:00,48.0,44.6,29.90,SW,216,5.8,5.8,88,0.00,,FEW110,0.00,VWS V14.01,2013-03-31 05:21:00,
2013-03-31 00:23:00,48.0,44.6,29.90,SSW,213,5.8,5.8,88,0.00,,FEW110,0.00,VWS V14.01,2013-03-31 05:23:00,
2013-03-31 00:25:00,48.0,44.6,29.90,SSW,212,5.4,5.8,88,0.00,,FEW110,0.00,VWS V14.01,2013-03-31 05:25:00,
2013-03-31 00:26:00,48.0,44.6,29.90,SSW,207,5.4,5.4,88,0.00,,FEW110,0.00,VWS V14.01,2013-03-31 05:26:00,
2013-03-31 00:29:00,48.0,45.2,29.90,SSW,205,5.4,5.8,90,0.00,,FEW110,0.00,VWS V14.01,2013-03-31 05:29:00,
2013-03-31 00:30:00,48.0,45.2,29.90,SSW,199,5.4,5.4,90,0.00,,FEW110,0.00,VWS V14.01,2013-03-31 05:30:00,
2013-03-31 00:31:00,48.0,45.2,29.90,SSW,195,5.8,5.8,90,0.00,,FEW110,0.00,VWS V14.01,2013-03-31 05:31:00,
2013-03-31 00:32:00,48.0,45.2,29.90,SSW,212,5.8,6.3,90,0.00,,FEW110,0.00,VWS V14.01,2013-03-31 05:32:00,
2013-03-31 00:34:00,48.0,45.2,29.90,SW,215,5.8,5.8,90,0.00,,FEW110,0.00,VWS V14.01,2013-03-31 05:34:00,
2013-03-31 00:36:00,48.0,45.2,29.90,SW,222,4.5,4.9,90,0.00,,FEW110,0.00,VWS V14.01,2013-03-31 05:36:00,
2013-03-31 00:37:00,48.0,45.2,29.90,SSW,203,4.0,4.0,90,0.00,,FEW110,0.00,VWS V14.01,2013-03-31 05:37:00,
2013-03-31 00:39:00,48.0,45.2,29.90,SW,225,5.4,5.4,90,0.00,,FEW110,0.00,VWS V14.01,2013-03-31 05:39:00,
2013-03-31 00:41:00,48.0,45.2,29.90,SW,222,6.3,6.3,90,0.00,,FEW110,0.00,VWS V14.01,2013-03-31 05:41:00,
2013-03-31 00:43:00,48.0,45.2,29.90,SW,228,4.0,5.4,90,0.00,,FEW110,0.00,VWS V14.01,2013-03-31 05:43:00,
2013-03-31 00:44:00,48.0,45.2,29.90,SW,236,4.5,4.9,90,0.00,,FEW110,0.00,VWS V14.01,2013-03-31 05:44:00,
2013-03-31 00:46:00,48.0,45.2,29.90,SW,226,3.6,4.9,90,0.00,,FEW110,0.00,VWS V14.01,2013-03-31 05:46:00,
2013-03-31 00:47:00,48.0,45.2,29.90,SW,226,3.6,3.6,90,0.00,,FEW110,0.00,VWS V14.01,2013-03-31 05:47:00,
2013-03-31 00:48:00,48.0,45.2,29.90,SW,225,3.6,4.0,90,0.00,,FEW110,0.00,VWS V14.01,2013-03-31 05:48:00,
2013-03-31 00:49:00,48.0,45.2,29.90,SW,230,4.9,4.9,90,0.00,,FEW110,0.00,VWS V14.01,2013-03-31 05:49:00,
2013-03-31 00:51:00,48.0,45.2,29.90,SW,229,5.4,5.8,90,0.00,,FEW110,0.00,VWS V14.01,2013-03-31 05:51:00,
2013-03-31 00:52:00,48.0,45.2,29.90,SW,227,4.5,5.8,90,0.00,,FEW110,0.00,VWS V14.01,2013-03-31 05:52:00,
2013-03-31 00:54:00,48.0,45.2,29.90,SW,233,4.0,4.9,90,0.00,,FEW110,0.00,VWS V14.01,2013-03-31 05:54:00,
2013-03-31 00:55:00,48.0,45.2,29.90,SW,233,3.1,4.0,90,0.00,,FEW110,0.00,VWS V14.01,2013-03-31 05:55:00,
2013-03-31 00:56:00,48.0,45.2,29.90,SW,233,3.6,4.0,90,0.00,,FEW110,0.00,VWS V14.01,2013-03-31 05:56:00,
2013-03-31 00:57:00,48.0,45.2,29.90,SW,230,2.7,4.0,90,0.00,,FEW110,0.00,VWS V14.01,2013-03-31 05:57:00,
2013-03-31 01:01:00,48.0,45.2,29.90,SW,236,3.6,3.6,90,0.00,,FEW110,0.00,VWS V14.01,2013-03-31 06:01:00,
2013-03-31 01:02:00,48.0,45.2,29.90,WSW,242,3.1,3.1,90,0.00,,FEW110,0.00,VWS V14.01,2013-03-31 06:02:00,
2013-03-31 01:03:00,48.0,45.2,29.90,WSW,242,3.6,3.6,90,0.00,,FEW110,0.00,VWS V14.01,2013-03-31 06:03:00,
2013-03-31 01:07:00,48.0,45.2,29.90,SW,236,4.0,4.0,90,0.00,,FEW110,0.00,VWS V14.01,2013-03-31 06:07:00,
2013-03-31 01:09:00,48.0,45.2,29.90,SW,224,6.3,6.3,90,0.00,,FEW110,0.00,VWS V14.01,2013-03-31 06:09:00,
2013-03-31 01:12:00,48.0,45.2,29.90,SW,236,4.0,4.9,90,0.00,,FEW110,0.00,VWS V14.01,2013-03-31 06:12:00,
2013-03-31 01:14:00,48.0,45.2,29.90,SW,236,4.0,4.9,90,0.00,,FEW110,0.00,VWS V14.01,2013-03-31 06:14:00,
2013-03-31 01:15:00,48.0,45.2,29.90,SW,235,4.9,4.9,90,0.00,,FEW110,0.00,VWS V14.01,2013-03-31 06:15:00,
2013-03-31 01:18:00,48.0,45.2,29.90,SW,228,4.9,5.8,90,0.00,,FEW110,0.00,VWS V14.01,2013-03-31 06:18:00,
2013-03-31 01:19:00,48.0,45.2,29.90,SW,235,5.4,5.8,90,0.00,,FEW110,0.00,VWS V14.01,2013-03-31 06:19:00,
2013-03-31 01:20:00,48.0,45.2,29.90,SW,222,5.4,5.4,90,0.00,,FEW110,0.00,VWS V14.01,2013-03-31 06:20:00,
2013-03-31 01:23:00,48.0,45.2,29.90,SW,227,4.0,4.9,90,0.00,,FEW110,0.00,VWS V14.01,2013-03-31 06:23:00,
2013-03-31 01:24:00,48.0,45.2,29.87,SW,227,4.9,6.3,90,0.00,,FEW110,0.00,VWS V14.01,2013-03-31 06:24:00,
2013-03-31 01:25:00,48.0,45.2,29.87,SW,229,5.4,6.3,90,0.00,,FEW110,0.00,VWS V14.01,2013-03-31 06:25:00,
2013-03-31 01:26:00,48.0,45.8,29.87,SW,232,6.3,6.3,92,0.00,,FEW110,0.00,VWS V14.01,2013-03-31 06:26:00,
2013-03-31 01:28:00,47.8,45.6,29.87,WSW,243,4.0,4.0,92,0.00,,FEW110,0.00,VWS V14.01,2013-03-31 06:28:00,
2013-03-31 01:30:00,47.8,45.6,29.87,West,273,3.1,3.1,92,0.00,,FEW110,0.00,VWS V14.01,2013-03-31 06:30:00,
2013-03-31 01:31:00,47.8,45.6,29.87,West,268,4.0,4.9,92,0.00,,FEW110,0.00,VWS V14.01,2013-03-31 06:31:00,
2013-03-31 01:34:00,47.8,45.6,29.87,West,276,2.7,2.7,92,0.00,,FEW110,0.00,VWS V14.01,2013-03-31 06:34:00,
2013-03-31 01:36:00,47.8,45.6,29.87,SW,236,5.8,5.8,92,0.00,,FEW110,0.00,VWS V14.01,2013-03-31 06:36:00,
2013-03-31 01:37:00,47.8,45.6,29.87,West,267,3.6,5.8,92,0.00,,FEW110,0.00,VWS V14.01,2013-03-31 06:37:00,
2013-03-31 01:40:00,47.8,45.6,29.87,West,266,3.6,4.0,92,0.00,,FEW110,0.00,VWS V14.01,2013-03-31 06:40:00,
2013-03-31 01:41:00,47.8,45.6,29.87,West,266,3.1,4.0,92,0.00,,FEW110,0.00,VWS V14.01,2013-03-31 06:41:00,
2013-03-31 01:42:00,47.8,45.6,29.87,West,262,3.6,3.6,92,0.00,,FEW110,0.00,VWS V14.01,2013-03-31 06:42:00,
2013-03-31 01:43:00,47.8,45.6,29.87,WSW,243,5.4,5.4,92,0.00,,FEW110,0.00,VWS V14.01,2013-03-31 06:43:00,
2013-03-31 01:45:00,47.8,45.6,29.87,West,264,4.9,4.9,92,0.00,,FEW110,0.00,VWS V14.01,2013-03-31 06:45:00,
2013-03-31 01:47:00,47.8,45.6,29.87,West,262,4.9,5.4,92,0.00,,FEW110,0.00,VWS V14.01,2013-03-31 06:47:00,
2013-03-31 01:48:00,47.8,45.6,29.87,WSW,250,4.5,5.4,92,0.00,,FEW110,0.00,VWS V14.01,2013-03-31 06:48:00,
2013-03-31 01:50:00,48.0,45.8,29.87,WSW,242,5.4,5.4,92,0.00,,FEW110,0.00,VWS V14.01,2013-03-31 06:50:00,
2013-03-31 01:52:00,48.0,45.8,29.87,WSW,248,5.8,5.8,92,0.00,,FEW110,0.00,VWS V14.01,2013-03-31 06:52:00,
2013-03-31 01:53:00,48.0,45.8,29.87,WSW,250,5.4,5.8,92,0.00,,FEW110,0.00,VWS V14.01,2013-03-31 06:53:00,
2013-03-31 01:55:00,47.8,45.6,29.90,WSW,252,2.7,4.0,92,0.00,,FEW110,0.00,VWS V14.01,2013-03-31 06:55:00,
2013-03-31 01:58:00,47.7,45.5,29.90,West,267,3.6,4.9,92,0.00,,FEW110,0.00,VWS V14.01,2013-03-31 06:58:00,
2013-03-31 02:00:00,47.5,45.3,29.90,WSW,257,3.6,3.6,92,0.00,,FEW110,0.00,VWS V14.01,2013-03-31 07:00:00,
2013-03-31 02:03:00,47.1,44.3,29.90,WSW,246,5.8,5.8,90,0.00,,FEW110,0.00,VWS V14.01,2013-03-31 07:03:00,
2013-03-31 02:04:00,47.1,44.3,29.90,West,271,4.0,5.8,90,0.00,,FEW110,0.00,VWS V14.01,2013-03-31 07:04:00,
2013-03-31 02:05:00,46.9,44.7,29.90,West,263,3.1,3.1,92,0.00,,FEW110,0.00,VWS V14.01,2013-03-31 07:05:00,
2013-03-31 02:06:00,46.9,44.7,29.90,WSW,257,5.8,5.8,92,0.00,,FEW110,0.00,VWS V14.01,2013-03-31 07:06:00,
2013-03-31 02:08:00,46.8,45.1,29.90,West,265,3.6,4.0,94,0.00,,FEW110,0.00,VWS V14.01,2013-03-31 07:08:00,
2013-03-31 02:10:00,46.6,45.0,29.90,West,262,3.1,4.0,94,0.00,,FEW110,0.00,VWS V14.01,2013-03-31 07:10:00,
2013-03-31 02:11:00,46.6,45.0,29.90,WSW,241,4.9,4.9,94,0.00,,FEW110,0.00,VWS V14.01,2013-03-31 07:11:00,
2013-03-31 02:12:00,46.6,45.0,29.90,West,269,4.0,4.0,94,0.00,,FEW110,0.00,VWS V14.01,2013-03-31 07:12:00,
2013-03-31 02:14:00,46.6,45.0,29.90,West,277,4.9,5.8,94,0.00,,FEW110,0.00,VWS V14.01,2013-03-31 07:14:00,
2013-03-31 02:15:00,46.6,45.0,29.90,WNW,289,4.0,5.4,94,0.00,,FEW110,0.00,VWS V14.01,2013-03-31 07:15:00,
2013-03-31 02:16:00,46.6,45.5,29.90,WNW,283,2.7,4.0,96,0.00,,FEW110,0.00,VWS V14.01,2013-03-31 07:16:00,
2013-03-31 02:17:00,46.6,45.5,29.90,WSW,248,3.1,5.4,96,0.00,,FEW110,0.00,VWS V14.01,2013-03-31 07:17:00,
2013-03-31 02:19:00,46.8,45.7,29.90,West,267,3.1,4.9,96,0.00,,FEW110,0.00,VWS V14.01,2013-03-31 07:19:00,
2013-03-31 02:20:00,46.9,46.4,29.90,West,279,4.0,4.0,98,0.00,,FEW110,0.00,VWS V14.01,2013-03-31 07:20:00,
2013-03-31 02:22:00,46.9,46.4,29.90,WSW,258,4.9,5.4,98,0.00,,FEW110,0.00,VWS V14.01,2013-03-31 07:22:00,
2013-03-31 02:23:00,47.1,46.6,29.90,WSW,245,3.6,5.8,98,0.00,,FEW110,0.00,VWS V14.01,2013-03-31 07:23:00,
2013-03-31 02:24:00,47.1,46.6,29.87,WSW,245,4.0,4.0,98,0.00,,FEW110,0.00,VWS V14.01,2013-03-31 07:24:00,
2013-03-31 02:27:00,46.9,45.9,29.87,WSW,245,3.1,3.6,96,0.00,,FEW110,0.00,VWS V14.01,2013-03-31 07:27:00,
2013-03-31 02:29:00,46.8,45.7,29.87,WSW,257,3.6,3.6,96,0.00,,FEW110,0.00,VWS V14.01,2013-03-31 07:29:00,
2013-03-31 02:30:00,46.8,45.7,29.87,WSW,257,2.7,3.6,96,0.00,,FEW110,0.00,VWS V14.01,2013-03-31 07:30:00,
2013-03-31 02:33:00,46.6,46.0,29.87,WSW,246,3.1,3.6,98,0.00,,FEW110,0.00,VWS V14.01,2013-03-31 07:33:00,
2013-03-31 02:34:00,46.6,46.0,29.87,West,267,3.1,4.0,98,0.00,,FEW110,0.00,VWS V14.01,2013-03-31 07:34:00,
2013-03-31 02:35:00,46.6,46.0,29.87,West,267,3.1,4.0,98,0.00,,FEW110,0.00,VWS V14.01,2013-03-31 07:35:00,
2013-03-31 02:38:00,46.4,45.9,29.87,WNW,293,4.0,4.0,98,0.00,,FEW110,0.00,VWS V14.01,2013-03-31 07:38:00,
2013-03-31 02:39:00,46.6,46.6,29.90,WNW,292,2.2,4.0,100,0.00,,FEW110,0.00,VWS V14.01,2013-03-31 07:39:00,
2013-03-31 02:40:00,46.6,46.6,29.90,WNW,293,2.2,2.7,100,0.00,,FEW110,0.00,VWS V14.01,2013-03-31 07:40:00,
2013-03-31 02:43:00,46.9,46.9,29.90,WNW,293,3.1,3.1,100,0.00,,FEW110,0.00,VWS V14.01,2013-03-31 07:43:00,
2013-03-31 02:45:00,46.9,46.9,29.90,West,281,5.4,5.4,100,0.00,,FEW110,0.00,VWS V14.01,2013-03-31 07:45:00,
2013-03-31 02:46:00,47.1,47.1,29.90,West,281,3.6,5.4,100,0.00,,FEW110,0.00,VWS V14.01,2013-03-31 07:46:00,
2013-03-31 02:48:00,47.3,47.3,29.90,WNW,286,2.2,3.6,100,0.00,,FEW110,0.00,VWS V14.01,2013-03-31 07:48:00,
2013-03-31 02:49:00,47.3,47.3,29.90,WNW,286,2.2,3.6,100,0.00,,FEW110,0.00,VWS V14.01,2013-03-31 07:49:00,
2013-03-31 02:50:00,47.3,47.3,29.90,WNW,294,3.6,3.6,100,0.00,,FEW110,0.00,VWS V14.01,2013-03-31 07:50:00,
2013-03-31 02:52:00,47.5,47.5,29.90,WNW,294,3.1,3.6,100,0.00,,FEW110,0.00,VWS V14.01,2013-03-31 07:52:00,
2013-03-31 02:54:00,47.7,47.7,29.90,WNW,294,3.6,3.6,100,0.00,,FEW110,0.00,VWS V14.01,2013-03-31 07:54:00,
2013-03-31 02:56:00,47.7,47.7,29.90,WNW,294,3.6,3.6,100,0.00,,FEW110,0.00,VWS V14.01,2013-03-31 07:56:00,
2013-03-31 02:57:00,47.7,47.7,29.90,WNW,294,3.1,4.0,100,0.00,,FEW110,0.00,VWS V14.01,2013-03-31 07:57:00,
2013-03-31 02:59:00,47.7,47.7,29.90,WNW,294,2.2,2.2,100,0.00,,FEW110,0.00,VWS V14.01,2013-03-31 07:59:00,
2013-03-31 03:02:00,47.7,47.7,29.90,WNW,294,2.2,2.7,100,0.00,,FEW110,0.00,VWS V14.01,2013-03-31 08:02:00,
2013-03-31 03:04:00,47.7,47.7,29.90,WNW,294,0.0,2.2,100,0.00,,FEW110,0.00,VWS V14.01,2013-03-31 08:04:00,
2013-03-31 03:08:00,47.7,47.7,29.90,WNW,294,2.2,2.2,100,0.00,,FEW110,0.00,VWS V14.01,2013-03-31 08:08:00,
2013-03-31 03:10:00,47.7,47.7,29.87,WNW,294,2.7,2.7,100,0.00,,FEW110,0.00,VWS V14.01,2013-03-31 08:10:00,
2013-03-31 03:14:00,47.7,47.7,29.87,WNW,294,0.0,0.0,100,0.00,,FEW110,0.00,VWS V14.01,2013-03-31 08:14:00,
2013-03-31 03:15:00,47.7,47.7,29.87,WNW,294,0.0,0.0,100,0.00,,FEW110,0.00,VWS V14.01,2013-03-31 08:15:00,
2013-03-31 03:16:00,47.7,47.7,29.87,WNW,294,0.0,0.0,100,0.00,,FEW110,0.00,VWS V14.01,2013-03-31 08:16:00,
2013-03-31 03:19:00,47.7,47.7,29.87,WSW,253,2.7,3.1,100,0.00,,FEW110,0.00,VWS V14.01,2013-03-31 08:19:00,
2013-03-31 03:20:00,47.7,47.7,29.87,West,273,3.6,5.4,100,0.00,,FEW110,0.00,VWS V14.01,2013-03-31 08:20:00,
2013-03-31 03:22:00,47.7,47.7,29.87,West,265,2.7,2.7,100,0.00,,FEW110,0.00,VWS V14.01,2013-03-31 08:22:00,
2013-03-31 03:25:00,47.7,47.7,29.90,West,265,4.9,4.9,100,0.00,,FEW110,0.00,VWS V14.01,2013-03-31 08:25:00,
2013-03-31 03:26:00,47.7,47.7,29.90,West,265,3.1,4.0,100,0.00,,FEW110,0.00,VWS V14.01,2013-03-31 08:26:00,
2013-03-31 03:28:00,47.8,47.8,29.90,WSW,242,5.8,5.8,100,0.00,,FEW110,0.00,VWS V14.01,2013-03-31 08:28:00,
2013-03-31 03:30:00,47.8,47.8,29.90,West,262,3.6,4.0,100,0.00,,FEW110,0.00,VWS V14.01,2013-03-31 08:30:00,
2013-03-31 03:31:00,47.8,47.8,29.90,West,262,2.7,3.6,100,0.00,,FEW110,0.00,VWS V14.01,2013-03-31 08:31:00,
2013-03-31 03:32:00,47.8,47.8,29.90,West,262,3.6,3.6,100,0.00,,FEW110,0.00,VWS V14.01,2013-03-31 08:32:00,
2013-03-31 03:33:00,48.0,48.0,29.90,WNW,282,3.6,3.6,100,0.00,,FEW110,0.00,VWS V14.01,2013-03-31 08:33:00,
2013-03-31 03:35:00,48.0,48.0,29.90,WNW,293,3.6,5.8,100,0.00,,FEW110,0.00,VWS V14.01,2013-03-31 08:35:00,
2013-03-31 03:37:00,48.0,48.0,29.90,WNW,285,3.1,3.1,100,0.00,,FEW110,0.00,VWS V14.01,2013-03-31 08:37:00,
2013-03-31 03:38:00,48.0,48.0,29.90,WNW,285,2.7,3.1,100,0.00,,FEW110,0.00,VWS V14.01,2013-03-31 08:38:00,
2013-03-31 03:40:00,48.2,48.2,29.87,WNW,293,3.6,3.6,100,0.00,,FEW110,0.00,VWS V14.01,2013-03-31 08:40:00,
2013-03-31 03:43:00,48.2,48.2,29.87,WNW,290,4.0,4.0,100,0.00,,FEW110,0.00,VWS V14.01,2013-03-31 08:43:00,
2013-03-31 03:46:00,48.2,48.2,29.87,West,266,5.4,5.4,100,0.00,,FEW110,0.00,VWS V14.01,2013-03-31 08:46:00,
2013-03-31 03:48:00,48.2,48.2,29.87,West,268,4.5,4.9,100,0.00,,FEW110,0.00,VWS V14.01,2013-03-31 08:48:00,
2013-03-31 03:49:00,48.2,48.2,29.87,West,270,3.1,4.5,100,0.00,,FEW110,0.00,VWS V14.01,2013-03-31 08:49:00,
2013-03-31 03:51:00,48.2,48.2,29.87,West,270,3.6,3.6,100,0.00,,FEW110,0.00,VWS V14.01,2013-03-31 08:51:00,
2013-03-31 03:53:00,48.2,48.2,29.87,WNW,283,4.0,4.0,100,0.00,,FEW110,0.00,VWS V14.01,2013-03-31 08:53:00,
2013-03-31 03:55:00,48.2,48.2,29.87,West,276,4.0,4.9,100,0.00,,FEW110,0.00,VWS V14.01,2013-03-31 08:55:00,
2013-03-31 03:57:00,48.2,48.2,29.87,WSW,243,3.1,3.6,100,0.00,,FEW110,0.00,VWS V14.01,2013-03-31 08:57:00,
2013-03-31 03:59:00,48.2,48.2,29.87,WSW,249,3.1,4.9,100,0.00,,FEW110,0.00,VWS V14.01,2013-03-31 08:59:00,
2013-03-31 04:00:00,48.2,48.2,29.87,WSW,250,3.6,4.0,100,0.00,,FEW110,0.00,VWS V14.01,2013-03-31 09:00:00,
2013-03-31 04:01:00,48.2,48.2,29.87,WSW,250,3.1,4.0,100,0.00,,FEW110,0.00,VWS V14.01,2013-03-31 09:01:00,
2013-03-31 04:02:00,48.2,48.2,29.87,West,273,3.1,4.0,100,0.00,,FEW110,0.00,VWS V14.01,2013-03-31 09:02:00,
2013-03-31 04:05:00,48.2,48.2,29.87,West,263,4.0,4.0,100,0.00,,FEW110,0.00,VWS V14.01,2013-03-31 09:05:00,
2013-03-31 04:07:00,48.2,48.2,29.87,West,259,3.6,4.0,100,0.00,,FEW110,0.00,VWS V14.01,2013-03-31 09:07:00,
2013-03-31 04:08:00,48.2,48.2,29.87,West,259,3.6,3.6,100,0.00,,FEW110,0.00,VWS V14.01,2013-03-31 09:08:00,
2013-03-31 04:11:00,48.2,48.2,29.87,WSW,252,3.1,3.1,100,0.00,,FEW110,0.00,VWS V14.01,2013-03-31 09:11:00,
2013-03-31 04:12:00,48.2,48.2,29.87,West,270,4.0,5.4,100,0.00,,FEW110,0.00,VWS V14.01,2013-03-31 09:12:00,
2013-03-31 04:13:00,48.2,48.2,29.87,WNW,297,3.6,5.4,100,0.00,,FEW110,0.00,VWS V14.01,2013-03-31 09:13:00,
2013-03-31 04:16:00,48.2,48.2,29.87,WNW,288,5.4,5.4,100,0.00,,FEW110,0.00,VWS V14.01,2013-03-31 09:16:00,
2013-03-31 04:18:00,48.2,48.2,29.87,WNW,285,3.6,6.3,100,0.00,,FEW110,0.00,VWS V14.01,2013-03-31 09:18:00,
2013-03-31 04:21:00,48.4,48.4,29.87,West,280,4.0,5.4,100,0.00,,FEW110,0.00,VWS V14.01,2013-03-31 09:21:00,
2013-03-31 04:23:00,48.4,48.4,29.87,WNW,288,2.7,2.7,100,0.00,,FEW110,0.00,VWS V14.01,2013-03-31 09:23:00,
2013-03-31 04:24:00,48.4,48.4,29.90,West,274,4.0,4.0,100,0.00,,FEW110,0.00,VWS V14.01,2013-03-31 09:24:00,
2013-03-31 04:27:00,48.4,48.4,29.90,WNW,292,4.0,4.9,100,0.00,,FEW110,0.00,VWS V14.01,2013-03-31 09:27:00,
2013-03-31 04:28:00,48.4,48.4,29.90,WNW,292,3.1,3.1,100,0.00,,FEW110,0.00,VWS V14.01,2013-03-31 09:28:00,
2013-03-31 04:29:00,48.4,48.4,29.90,West,269,3.1,4.0,100,0.00,,FEW110,0.00,VWS V14.01,2013-03-31 09:29:00,
2013-03-31 04:30:00,48.4,48.4,29.90,WNW,286,3.6,3.6,100,0.00,,FEW110,0.00,VWS V14.01,2013-03-31 09:30:00,
2013-03-31 04:32:00,48.4,48.4,29.90,WNW,294,4.0,4.0,100,0.00,,FEW110,0.00,VWS V14.01,2013-03-31 09:32:00,
2013-03-31 04:33:00,48.4,48.4,29.90,WNW,288,3.1,3.1,100,0.00,,FEW110,0.00,VWS V14.01,2013-03-31 09:33:00,
2013-03-31 04:34:00,48.4,48.4,29.90,West,275,3.6,4.0,100,0.00,,FEW110,0.00,VWS V14.01,2013-03-31 09:34:00,
2013-03-31 04:37:00,48.4,48.4,29.90,WNW,288,3.1,4.9,100,0.00,,FEW110,0.00,VWS V14.01,2013-03-31 09:37:00,
2013-03-31 04:39:00,48.4,48.4,29.87,WNW,287,3.6,3.6,100,0.00,,FEW110,0.00,VWS V14.01,2013-03-31 09:39:00,
2013-03-31 04:40:00,48.4,48.4,29.87,WNW,287,3.6,3.6,100,0.00,,FEW110,0.00,VWS V14.01,2013-03-31 09:40:00,
2013-03-31 04:42:00,48.4,48.4,29.87,NW,305,4.0,4.0,100,0.00,,FEW110,0.00,VWS V14.01,2013-03-31 09:42:00,
2013-03-31 04:44:00,48.4,48.4,29.87,WNW,298,3.1,3.1,100,0.00,,FEW110,0.00,VWS V14.01,2013-03-31 09:44:00,
2013-03-31 04:46:00,48.4,48.4,29.87,WNW,298,2.7,3.1,100,0.00,,FEW110,0.00,VWS V14.01,2013-03-31 09:46:00,
2013-03-31 04:49:00,48.4,48.4,29.87,WNW,297,4.0,4.0,100,0.00,,FEW110,0.00,VWS V14.01,2013-03-31 09:49:00,
2013-03-31 04:50:00,48.4,48.4,29.87,WNW,296,3.6,4.0,100,0.00,,FEW110,0.00,VWS V14.01,2013-03-31 09:50:00,
2013-03-31 04:51:00,48.4,48.4,29.87,WNW,296,3.1,4.0,100,0.00,,FEW110,0.00,VWS V14.01,2013-03-31 09:51:00,
2013-03-31 04:54:00,48.4,48.4,29.87,WNW,296,2.7,2.7,100,0.00,,FEW110,0.00,VWS V14.01,2013-03-31 09:54:00,
2013-03-31 04:55:00,48.4,48.4,29.87,WNW,296,2.2,2.7,100,0.00,,FEW110,0.00,VWS V14.01,2013-03-31 09:55:00,
2013-03-31 04:56:00,48.4,48.4,29.87,WNW,296,0.0,2.7,100,0.00,,FEW110,0.00,VWS V14.01,2013-03-31 09:56:00,
2013-03-31 04:59:00,48.4,48.4,29.87,WNW,296,2.7,3.6,100,0.00,,FEW110,0.00,VWS V14.01,2013-03-31 09:59:00,
2013-03-31 05:01:00,48.4,48.4,29.87,WNW,296,2.7,2.7,100,0.00,,FEW110,0.00,VWS V14.01,2013-03-31 10:01:00,
2013-03-31 05:04:00,48.6,48.6,29.87,NW,309,2.7,3.6,100,0.00,,FEW110,0.00,VWS V14.01,2013-03-31 10:04:00,
2013-03-31 05:07:00,48.4,48.4,29.87,NW,309,2.7,2.7,100,0.00,,FEW110,0.00,VWS V14.01,2013-03-31 10:07:00,
2013-03-31 05:09:00,48.4,48.4,29.87,NW,307,2.7,2.7,100,0.00,,FEW110,0.00,VWS V14.01,2013-03-31 10:09:00,
2013-03-31 05:12:00,48.4,48.4,29.87,NW,307,2.2,2.2,100,0.00,,FEW110,0.00,VWS V14.01,2013-03-31 10:12:00,
2013-03-31 05:13:00,48.4,48.4,29.87,NW,307,2.7,2.7,100,0.00,,FEW110,0.00,VWS V14.01,2013-03-31 10:13:00,
2013-03-31 05:14:00,48.4,48.4,29.87,NW,307,2.2,2.7,100,0.00,,FEW110,0.00,VWS V14.01,2013-03-31 10:14:00,
2013-03-31 05:17:00,48.4,48.4,29.87,NW,307,0.0,0.0,100,0.00,,FEW110,0.00,VWS V14.01,2013-03-31 10:17:00,
2013-03-31 05:18:00,48.4,48.4,29.87,NW,307,2.2,2.2,100,0.00,,FEW110,0.00,VWS V14.01,2013-03-31 10:18:00,
2013-03-31 05:19:00,48.4,48.4,29.87,NW,307,2.2,2.2,100,0.00,,FEW110,0.00,VWS V14.01,2013-03-31 10:19:00,
2013-03-31 05:23:00,48.4,48.4,29.87,NW,307,2.7,2.7,100,0.00,,FEW110,0.00,VWS V14.01,2013-03-31 10:23:00,
2013-03-31 05:24:00,48.4,48.4,29.87,NW,307,0.0,0.0,100,0.00,,FEW110,0.00,VWS V14.01,2013-03-31 10:24:00,
2013-03-31 05:28:00,48.4,48.4,29.87,NW,307,2.7,2.7,100,0.00,,FEW110,0.00,VWS V14.01,2013-03-31 10:28:00,
2013-03-31 05:29:00,48.4,48.4,29.87,NW,307,0.0,0.0,100,0.00,,FEW110,0.00,VWS V14.01,2013-03-31 10:29:00,
2013-03-31 05:33:00,48.4,48.4,29.87,NW,307,0.0,0.0,100,0.00,,FEW110,0.00,VWS V14.01,2013-03-31 10:33:00,
2013-03-31 05:34:00,48.4,48.4,29.87,NW,307,0.0,0.0,100,0.00,,FEW110,0.00,VWS V14.01,2013-03-31 10:34:00,
2013-03-31 05:35:00,48.4,48.4,29.87,NW,307,0.0,0.0,100,0.00,,FEW110,0.00,VWS V14.01,2013-03-31 10:35:00,
2013-03-31 05:39:00,48.4,48.4,29.87,NW,307,0.0,0.0,100,0.00,,FEW110,0.00,VWS V14.01,2013-03-31 10:39:00,
2013-03-31 05:41:00,48.4,48.4,29.87,NW,307,0.0,0.0,100,0.00,,FEW110,0.00,VWS V14.01,2013-03-31 10:41:00,
2013-03-31 05:44:00,48.4,48.4,29.87,NW,307,0.0,0.0,100,0.00,,FEW110,0.00,VWS V14.01,2013-03-31 10:44:00,
2013-03-31 05:47:00,48.4,48.4,29.87,NW,307,0.0,0.0,100,0.00,,FEW110,0.00,VWS V14.01,2013-03-31 10:47:00,
2013-03-31 05:49:00,48.4,48.4,29.87,NW,307,0.0,0.0,100,0.00,,FEW110,0.00,VWS V14.01,2013-03-31 10:49:00,
2013-03-31 05:50:00,48.4,48.4,29.87,NW,307,0.0,0.0,100,0.00,,FEW110,0.00,VWS V14.01,2013-03-31 10:50:00,
2013-03-31 05:53:00,48.4,48.4,29.87,NW,307,0.0,0.0,100,0.00,,FEW110,0.00,VWS V14.01,2013-03-31 10:53:00,
2013-03-31 05:54:00,48.4,48.4,29.87,NW,307,0.0,0.0,100,0.00,,FEW110,0.00,VWS V14.01,2013-03-31 10:54:00,
2013-03-31 05:56:00,48.4,48.4,29.87,NW,307,0.0,0.0,100,0.00,,FEW110,0.00,VWS V14.01,2013-03-31 10:56:00,
2013-03-31 05:58:00,48.4,48.4,29.87,NW,307,0.0,0.0,100,0.00,,FEW110,0.00,VWS V14.01,2013-03-31 10:58:00,
2013-03-31 05:59:00,48.4,48.4,29.87,NW,307,0.0,0.0,100,0.00,,FEW110,0.00,VWS V14.01,2013-03-31 10:59:00,
2013-03-31 06:01:00,48.4,48.4,29.87,NW,307,0.0,0.0,100,0.00,,FEW110,0.00,VWS V14.01,2013-03-31 11:01:00,
2013-03-31 06:04:00,48.6,48.6,29.87,NW,307,0.0,0.0,100,0.00,,FEW110,0.00,VWS V14.01,2013-03-31 11:04:00,
2013-03-31 06:05:00,48.6,48.6,29.87,NW,307,2.2,3.6,100,0.00,,FEW110,0.00,VWS V14.01,2013-03-31 11:05:00,
2013-03-31 06:07:00,48.6,48.6,29.87,NW,307,2.2,2.2,100,0.00,,FEW110,0.00,VWS V14.01,2013-03-31 11:07:00,
2013-03-31 06:10:00,48.6,48.6,29.87,West,281,4.0,4.0,100,0.00,,FEW110,0.00,VWS V14.01,2013-03-31 11:10:00,
2013-03-31 06:12:00,48.6,48.6,29.87,WNW,300,3.6,4.0,100,0.00,,FEW110,0.00,VWS V14.01,2013-03-31 11:12:00,
2013-03-31 06:13:00,48.6,48.6,29.87,WNW,291,4.0,4.0,100,0.00,,FEW110,0.00,VWS V14.01,2013-03-31 11:13:00,
2013-03-31 06:16:00,48.7,48.7,29.87,WNW,293,4.0,4.0,100,0.00,,FEW110,0.00,VWS V14.01,2013-03-31 11:16:00,
2013-03-31 06:17:00,48.7,48.7,29.87,WNW,284,5.8,5.8,100,0.00,,FEW110,0.00,VWS V14.01,2013-03-31 11:17:00,
2013-03-31 06:18:00,48.7,48.7,29.87,West,269,3.6,5.8,100,0.00,,FEW110,0.00,VWS V14.01,2013-03-31 11:18:00,
2013-03-31 06:19:00,48.7,48.7,29.87,West,275,5.4,5.4,100,0.00,,FEW110,0.00,VWS V14.01,2013-03-31 11:19:00,
2013-03-31 06:21:00,48.7,48.7,29.87,West,281,4.0,4.9,100,0.00,,FEW110,0.00,VWS V14.01,2013-03-31 11:21:00,
2013-03-31 06:22:00,48.7,48.7,29.87,West,259,4.5,5.8,100,0.00,,FEW110,0.00,VWS V14.01,2013-03-31 11:22:00,
2013-03-31 06:23:00,48.7,48.7,29.87,West,280,4.9,5.4,100,0.00,,FEW110,0.00,VWS V14.01,2013-03-31 11:23:00,
2013-03-31 06:24:00,48.7,48.7,29.87,West,275,3.1,5.4,100,0.00,,FEW110,0.00,VWS V14.01,2013-03-31 11:24:00,
2013-03-31 06:26:00,48.7,48.7,29.87,WNW,297,4.0,4.0,100,0.00,,FEW110,0.00,VWS V14.01,2013-03-31 11:26:00,
2013-03-31 06:28:00,48.7,48.7,29.87,WNW,284,4.0,5.4,100,0.00,,FEW110,0.00,VWS V14.01,2013-03-31 11:28:00,
2013-03-31 06:29:00,48.7,48.7,29.87,WNW,294,6.3,6.3,100,0.00,,FEW110,0.00,VWS V14.01,2013-03-31 11:29:00,
2013-03-31 06:30:00,48.7,48.7,29.87,NW,311,6.3,6.3,100,0.00,,FEW110,0.00,VWS V14.01,2013-03-31 11:30:00,
2013-03-31 06:33:00,48.7,48.7,29.87,WNW,296,5.8,5.8,100,0.00,,FEW110,0.00,VWS V14.01,2013-03-31 11:33:00,
2013-03-31 06:34:00,48.6,48.6,29.87,West,278,3.6,5.4,100,0.00,,FEW110,0.00,VWS V14.01,2013-03-31 11:34:00,
2013-03-31 06:37:00,48.6,48.6,29.87,WNW,284,4.9,4.9,100,0.00,,FEW110,0.00,VWS V14.01,2013-03-31 11:37:00,
2013-03-31 06:38:00,48.6,48.6,29.90,WNW,292,3.6,3.6,100,0.00,,FEW110,0.00,VWS V14.01,2013-03-31 11:38:00,
2013-03-31 06:39:00,48.6,48.6,29.90,WNW,300,5.4,5.4,100,0.00,,FEW110,0.00,VWS V14.01,2013-03-31 11:39:00,
2013-03-31 06:40:00,48.6,48.6,29.90,West,273,4.0,5.4,100,0.00,,FEW110,0.00,VWS V14.01,2013-03-31 11:40:00,
2013-03-31 06:43:00,48.6,48.6,29.90,WNW,284,5.4,6.3,100,0.00,,FEW110,0.00,VWS V14.01,2013-03-31 11:43:00,
2013-03-31 06:44:00,48.6,48.6,29.90,NW,310,5.4,6.3,100,0.00,,FEW110,0.00,VWS V14.01,2013-03-31 11:44:00,
2013-03-31 06:45:00,48.6,48.6,29.90,WNW,302,5.8,5.8,100,0.00,,FEW110,0.00,VWS V14.01,2013-03-31 11:45:00,
2013-03-31 06:48:00,48.7,48.7,29.90,NW,304,7.6,7.6,100,0.00,,FEW110,0.00,VWS V14.01,2013-03-31 11:48:00,
2013-03-31 06:49:00,48.7,48.7,29.90,WNW,291,4.9,4.9,100,0.00,,FEW110,0.00,VWS V14.01,2013-03-31 11:49:00,
2013-03-31 06:50:00,48.7,48.7,29.90,WNW,302,3.6,3.6,100,0.00,,FEW110,0.00,VWS V14.01,2013-03-31 11:50:00,
2013-03-31 06:51:00,48.7,48.7,29.90,WNW,302,3.1,3.6,100,0.00,,FEW110,0.00,VWS V14.01,2013-03-31 11:51:00,
2013-03-31 06:53:00,48.6,48.6,29.90,NW,304,2.7,3.6,100,0.00,,FEW110,0.00,VWS V14.01,2013-03-31 11:53:00,
2013-03-31 06:54:00,48.6,48.6,29.90,NW,310,4.9,5.4,100,0.00,,FEW110,0.00,VWS V14.01,2013-03-31 11:54:00,
2013-03-31 06:55:00,48.6,48.6,29.90,NW,305,4.9,4.9,100,0.00,,FEW110,0.00,VWS V14.01,2013-03-31 11:55:00,
2013-03-31 06:56:00,48.6,48.6,29.90,WNW,288,4.0,5.4,100,0.00,,FEW110,0.00,VWS V14.01,2013-03-31 11:56:00,
2013-03-31 06:59:00,48.6,48.6,29.90,WNW,300,2.7,4.0,100,0.00,,FEW110,0.00,VWS V14.01,2013-03-31 11:59:00,
2013-03-31 07:00:00,48.6,48.6,29.90,West,268,3.6,3.6,100,0.00,,FEW110,0.00,VWS V14.01,2013-03-31 12:00:00,
2013-03-31 07:01:00,48.6,48.6,29.90,West,268,3.1,4.0,100,0.00,,FEW110,0.00,VWS V14.01,2013-03-31 12:01:00,
2013-03-31 07:02:00,48.6,48.6,29.90,West,269,3.1,3.6,100,0.00,,FEW110,0.00,VWS V14.01,2013-03-31 12:02:00,
2013-03-31 07:04:00,48.6,48.6,29.90,NW,318,3.1,3.6,100,0.00,,FEW110,0.00,VWS V14.01,2013-03-31 12:04:00,
2013-03-31 07:05:00,48.6,48.6,29.90,WNW,289,3.1,3.1,100,0.00,,FEW110,0.00,VWS V14.01,2013-03-31 12:05:00,
2013-03-31 07:06:00,48.6,48.6,29.90,WSW,245,3.1,3.6,100,0.00,,FEW110,0.00,VWS V14.01,2013-03-31 12:06:00,
2013-03-31 07:08:00,48.6,48.6,29.90,WSW,245,0.0,2.7,100,0.00,,FEW110,0.00,VWS V14.01,2013-03-31 12:08:00,
2013-03-31 07:10:00,48.6,48.6,29.90,WSW,247,3.1,3.1,100,0.00,,FEW110,0.00,VWS V14.01,2013-03-31 12:10:00,
2013-03-31 07:11:00,48.6,48.6,29.90,WSW,247,4.0,4.0,100,0.00,,FEW110,0.00,VWS V14.01,2013-03-31 12:11:00,
2013-03-31 07:14:00,48.6,48.6,29.90,WSW,257,2.7,2.7,100,0.00,,FEW110,0.00,VWS V14.01,2013-03-31 12:14:00,
2013-03-31 07:15:00,48.6,48.6,29.90,West,262,3.6,3.6,100,0.00,,FEW110,0.00,VWS V14.01,2013-03-31 12:15:00,
2013-03-31 07:16:00,48.6,48.6,29.90,WNW,291,2.2,3.6,100,0.00,,FEW110,0.00,VWS V14.01,2013-03-31 12:16:00,
2013-03-31 07:19:00,48.7,48.7,29.90,NW,304,3.1,3.6,100,0.00,,FEW110,0.00,VWS V14.01,2013-03-31 12:19:00,
2013-03-31 07:21:00,48.7,48.7,29.90,NW,320,6.3,6.3,100,0.00,,FEW110,0.00,VWS V14.01,2013-03-31 12:21:00,
2013-03-31 07:22:00,48.7,48.7,29.90,NW,306,3.6,6.3,100,0.00,,FEW110,0.00,VWS V14.01,2013-03-31 12:22:00,
2013-03-31 07:25:00,48.7,48.7,29.90,NW,318,3.1,4.0,100,0.00,,FEW110,0.00,VWS V14.01,2013-03-31 12:25:00,
2013-03-31 07:27:00,48.7,48.7,29.90,NW,322,4.0,4.0,100,0.00,,FEW110,0.00,VWS V14.01,2013-03-31 12:27:00,
2013-03-31 07:28:00,48.7,48.7,29.90,NW,322,0.0,0.0,100,0.00,,FEW110,0.00,VWS V14.01,2013-03-31 12:28:00,
2013-03-31 07:30:00,48.7,48.7,29.90,WNW,291,3.1,5.4,100,0.00,,FEW110,0.00,VWS V14.01,2013-03-31 12:30:00,
2013-03-31 07:33:00,48.7,48.7,29.90,WNW,282,2.7,4.0,100,0.00,,FEW110,0.00,VWS V14.01,2013-03-31 12:33:00,
2013-03-31 07:36:00,48.7,48.7,29.90,WNW,283,3.1,3.1,100,0.00,,FEW110,0.00,VWS V14.01,2013-03-31 12:36:00,
2013-03-31 07:38:00,48.7,48.7,29.90,WNW,293,3.1,3.6,100,0.00,,FEW110,0.00,VWS V14.01,2013-03-31 12:38:00,
2013-03-31 07:41:00,48.7,48.7,29.90,WNW,300,3.1,3.1,100,0.00,,FEW110,0.00,VWS V14.01,2013-03-31 12:41:00,
2013-03-31 07:43:00,48.7,48.7,29.90,West,278,4.0,5.8,100,0.00,,FEW110,0.00,VWS V14.01,2013-03-31 12:43:00,
2013-03-31 07:44:00,48.7,48.7,29.90,West,278,4.0,5.8,100,0.00,,FEW110,0.00,VWS V14.01,2013-03-31 12:44:00,
2013-03-31 07:47:00,48.7,48.7,29.90,WNW,291,3.1,4.0,100,0.00,,FEW110,0.00,VWS V14.01,2013-03-31 12:47:00,
2013-03-31 07:49:00,48.9,48.9,29.90,WNW,292,2.7,4.0,100,0.00,,FEW110,0.00,VWS V14.01,2013-03-31 12:49:00,
2013-03-31 07:54:00,48.9,48.9,29.90,West,268,5.8,5.8,100,0.00,,FEW110,0.00,VWS V14.01,2013-03-31 12:54:00,
2013-03-31 07:55:00,48.9,48.9,29.90,WSW,240,5.4,5.8,100,0.00,,FEW110,0.00,VWS V14.01,2013-03-31 12:55:00,
2013-03-31 07:59:00,48.9,48.9,29.90,WSW,256,5.4,5.4,100,0.00,,FEW110,0.00,VWS V14.01,2013-03-31 12:59:00,
2013-03-31 08:00:00,48.9,48.9,29.90,West,260,6.3,6.3,100,0.00,,FEW110,0.00,VWS V14.01,2013-03-31 13:00:00,
2013-03-31 08:01:00,48.9,48.9,29.90,West,262,4.9,5.4,100,0.00,,FEW110,0.00,VWS V14.01,2013-03-31 13:01:00,
2013-03-31 08:04:00,48.9,48.9,29.90,West,265,5.4,5.4,100,0.00,,FEW110,0.00,VWS V14.01,2013-03-31 13:04:00,
2013-03-31 08:05:00,48.9,48.9,29.90,West,273,5.4,5.4,100,0.00,,FEW110,0.00,VWS V14.01,2013-03-31 13:05:00,
2013-03-31 08:07:00,48.9,48.9,29.90,West,260,6.3,7.6,100,0.00,,FEW110,0.00,VWS V14.01,2013-03-31 13:07:00,
2013-03-31 08:10:00,48.9,48.9,29.90,WNW,296,6.3,8.3,100,0.00,,FEW110,0.00,VWS V14.01,2013-03-31 13:10:00,
2013-03-31 08:12:00,48.9,48.9,29.90,WNW,286,6.3,7.2,100,0.00,,FEW110,0.00,VWS V14.01,2013-03-31 13:12:00,
2013-03-31 08:15:00,48.9,48.9,29.90,West,268,5.8,5.8,100,0.00,,FEW110,0.00,VWS V14.01,2013-03-31 13:15:00,
2013-03-31 08:16:00,48.9,48.9,29.90,WNW,300,5.4,5.8,100,0.00,,FEW110,0.00,VWS V14.01,2013-03-31 13:16:00,
2013-03-31 08:17:00,48.9,48.9,29.90,West,280,4.0,6.3,100,0.00,,FEW110,0.00,VWS V14.01,2013-03-31 13:17:00,
2013-03-31 08:18:00,48.9,48.9,29.90,West,268,7.6,8.3,100,0.00,,FEW110,0.00,VWS V14.01,2013-03-31 13:18:00,
2013-03-31 08:20:00,48.9,48.9,29.90,West,281,5.4,6.3,100,0.00,,FEW110,0.00,VWS V14.01,2013-03-31 13:20:00,
2013-03-31 08:21:00,49.1,49.1,29.90,WSW,252,4.0,4.0,100,0.00,,FEW110,0.00,VWS V14.01,2013-03-31 13:21:00,
2013-03-31 08:23:00,49.1,49.1,29.90,WSW,251,4.0,5.4,100,0.00,,FEW110,0.00,VWS V14.01,2013-03-31 13:23:00,
2013-03-31 08:24:00,49.1,49.1,29.90,West,262,3.6,5.4,100,0.00,,FEW110,0.00,VWS V14.01,2013-03-31 13:24:00,
2013-03-31 08:26:00,49.1,49.1,29.90,West,269,3.6,5.8,100,0.00,,FEW110,0.00,VWS V14.01,2013-03-31 13:26:00,
2013-03-31 08:28:00,49.3,49.3,29.90,WNW,294,4.0,4.0,100,0.00,,FEW110,0.00,VWS V14.01,2013-03-31 13:28:00,
2013-03-31 08:30:00,49.3,49.3,29.90,West,276,4.0,4.0,100,0.00,,FEW110,0.00,VWS V14.01,2013-03-31 13:30:00,
2013-03-31 08:31:00,49.5,49.5,29.90,West,264,5.4,6.3,100,0.00,,FEW110,0.00,VWS V14.01,2013-03-31 13:31:00,
2013-03-31 08:32:00,49.5,49.5,29.90,West,275,5.8,5.8,100,0.00,,FEW110,0.00,VWS V14.01,2013-03-31 13:32:00,
2013-03-31 08:33:00,49.5,49.5,29.90,WNW,287,4.9,4.9,100,0.00,,FEW110,0.00,VWS V14.01,2013-03-31 13:33:00,
2013-03-31 08:35:00,49.6,49.6,29.90,WNW,292,5.4,5.4,100,0.00,,FEW110,0.00,VWS V14.01,2013-03-31 13:35:00,
2013-03-31 08:36:00,49.6,49.6,29.90,NW,314,4.0,5.4,100,0.00,,FEW110,0.00,VWS V14.01,2013-03-31 13:36:00,
2013-03-31 08:37:00,49.6,49.6,29.90,NW,314,3.6,4.0,100,0.00,,FEW110,0.00,VWS V14.01,2013-03-31 13:37:00,
2013-03-31 08:38:00,49.6,49.6,29.90,West,269,3.6,4.0,100,0.00,,FEW110,0.00,VWS V14.01,2013-03-31 13:38:00,
2013-03-31 08:40:00,49.8,49.8,29.90,WNW,294,4.0,4.9,100,0.00,,FEW110,0.00,VWS V14.01,2013-03-31 13:40:00,
2013-03-31 08:41:00,49.8,49.8,29.90,NW,318,4.0,6.3,100,0.00,,FEW110,0.00,VWS V14.01,2013-03-31 13:41:00,
2013-03-31 08:42:00,49.6,49.6,29.90,WNW,292,5.8,5.8,100,0.00,,FEW110,0.00,VWS V14.01,2013-03-31 13:42:00,
2013-03-31 08:44:00,49.8,49.8,29.90,WNW,286,2.7,5.8,100,0.00,,FEW110,0.00,VWS V14.01,2013-03-31 13:44:00,
2013-03-31 08:46:00,49.8,49.8,29.90,WSW,257,4.0,4.0,100,0.00,,FEW110,0.00,VWS V14.01,2013-03-31 13:46:00,
2013-03-31 08:48:00,50.2,50.2,29.90,WNW,288,3.6,4.9,100,0.00,,FEW110,0.00,VWS V14.01,2013-03-31 13:48:00,
2013-03-31 08:49:00,50.2,50.2,29.90,WSW,254,5.4,5.4,100,0.00,,FEW110,0.00,VWS V14.01,2013-03-31 13:49:00,
2013-03-31 08:50:00,50.2,50.2,29.90,WSW,247,3.6,4.0,100,0.00,,FEW110,0.00,VWS V14.01,2013-03-31 13:50:00,
2013-03-31 08:51:00,50.2,50.2,29.90,NW,318,3.6,4.0,100,0.00,,FEW110,0.00,VWS V14.01,2013-03-31 13:51:00,
2013-03-31 08:54:00,50.4,50.4,29.90,West,280,2.7,3.1,100,0.00,,FEW110,0.00,VWS V14.01,2013-03-31 13:54:00,
2013-03-31 08:56:00,50.5,50.5,29.90,WNW,287,2.7,3.1,100,0.00,,FEW110,0.00,VWS V14.01,2013-03-31 13:56:00,
2013-03-31 08:59:00,50.5,50.5,29.90,WNW,282,4.0,4.0,100,0.00,,FEW110,0.00,VWS V14.01,2013-03-31 13:59:00,
2013-03-31 09:00:00,50.5,50.5,29.90,West,270,3.6,5.4,100,0.00,,FEW110,0.00,VWS V14.01,2013-03-31 14:00:00,
2013-03-31 09:02:00,50.5,50.5,29.90,WNW,289,4.0,4.0,100,0.00,,FEW110,0.00,VWS V14.01,2013-03-31 14:02:00,
2013-03-31 09:04:00,50.5,49.5,29.90,West,266,4.0,5.4,96,0.00,,FEW110,0.00,VWS V14.01,2013-03-31 14:04:00,
2013-03-31 09:05:00,50.5,48.9,29.90,WNW,288,3.6,5.4,94,0.00,,FEW110,0.00,VWS V14.01,2013-03-31 14:05:00,
2013-03-31 09:07:00,50.7,49.1,29.90,WNW,292,4.0,5.8,94,0.00,,FEW110,0.00,VWS V14.01,2013-03-31 14:07:00,
2013-03-31 09:09:00,50.7,47.3,29.90,WNW,283,4.9,4.9,88,0.00,,FEW110,0.00,VWS V14.01,2013-03-31 14:09:00,
2013-03-31 09:11:00,51.1,47.7,29.90,WSW,254,3.1,5.4,88,0.00,,FEW110,0.00,VWS V14.01,2013-03-31 14:11:00,
2013-03-31 09:12:00,51.1,46.4,29.90,WNW,302,6.3,6.3,84,0.00,,FEW110,0.00,VWS V14.01,2013-03-31 14:12:00,
2013-03-31 09:16:00,51.4,46.1,29.90,West,281,2.2,4.9,82,0.00,,FEW110,0.00,VWS V14.01,2013-03-31 14:16:00,
2013-03-31 09:17:00,51.6,46.3,29.90,West,268,3.1,3.6,82,0.00,,FEW110,0.00,VWS V14.01,2013-03-31 14:17:00,
2013-03-31 09:18:00,51.8,45.8,29.90,WNW,299,3.1,5.8,80,0.00,,FEW110,0.00,VWS V14.01,2013-03-31 14:18:00,
2013-03-31 09:21:00,52.2,44.1,29.90,NW,317,5.4,6.3,74,0.00,,FEW110,0.00,VWS V14.01,2013-03-31 14:21:00,
2013-03-31 09:22:00,52.2,44.1,29.90,WNW,296,5.8,6.3,74,0.00,,FEW110,0.00,VWS V14.01,2013-03-31 14:22:00,
2013-03-31 09:23:00,52.2,44.1,29.90,NW,306,5.4,6.3,74,0.00,,FEW110,0.00,VWS V14.01,2013-03-31 14:23:00,
2013-03-31 09:24:00,52.3,44.3,29.90,WNW,292,5.8,5.8,74,0.00,,FEW110,0.00,VWS V14.01,2013-03-31 14:24:00,
2013-03-31 09:27:00,52.5,43.8,29.90,NW,322,7.6,7.6,72,0.00,,FEW110,0.00,VWS V14.01,2013-03-31 14:27:00,
2013-03-31 09:28:00,52.7,44.7,29.90,NW,314,7.6,7.6,74,0.00,,FEW110,0.00,VWS V14.01,2013-03-31 14:28:00,
2013-03-31 09:30:00,52.7,43.9,29.90,West,274,5.4,5.4,72,0.00,,FEW110,0.00,VWS V14.01,2013-03-31 14:30:00,
2013-03-31 09:33:00,52.9,44.1,29.90,NW,311,7.6,8.3,72,0.00,,FEW110,0.00,VWS V14.01,2013-03-31 14:33:00,
2013-03-31 09:37:00,53.2,44.5,29.90,WNW,290,7.6,7.6,72,0.00,,FEW110,0.00,VWS V14.01,2013-03-31 14:37:00,
2013-03-31 09:38:00,53.4,44.6,29.90,NW,313,5.4,6.3,72,0.00,,FEW110,0.00,VWS V14.01,2013-03-31 14:38:00,
2013-03-31 09:39:00,53.8,44.2,29.90,West,278,4.0,5.4,70,0.00,,FEW110,0.00,VWS V14.01,2013-03-31 14:39:00,
2013-03-31 09:42:00,54.5,42.6,29.90,WNW,289,6.3,7.6,64,0.00,,FEW110,0.00,VWS V14.01,2013-03-31 14:42:00,
2013-03-31 09:43:00,54.9,43.7,29.90,WNW,299,5.8,7.6,66,0.00,,FEW110,0.00,VWS V14.01,2013-03-31 14:43:00,
2013-03-31 09:44:00,54.7,41.9,29.90,WNW,298,3.6,6.3,62,0.00,,FEW110,0.00,VWS V14.01,2013-03-31 14:44:00,
2013-03-31 09:45:00,54.7,41.9,29.90,West,262,3.6,6.3,62,0.00,,FEW110,0.00,VWS V14.01,2013-03-31 14:45:00,
2013-03-31 09:48:00,55.0,44.7,29.90,West,268,3.6,6.3,68,0.00,,FEW110,0.00,VWS V14.01,2013-03-31 14:48:00,
2013-03-31 09:49:00,54.9,42.9,29.90,WNW,283,7.6,7.6,64,0.00,,FEW110,0.00,VWS V14.01,2013-03-31 14:49:00,
2013-03-31 09:50:00,54.9,42.9,29.90,NW,319,6.3,7.6,64,0.00,,FEW110,0.00,VWS V14.01,2013-03-31 14:50:00,
2013-03-31 09:53:00,54.3,41.6,29.90,West,279,6.3,6.3,62,0.00,,FEW110,0.00,VWS V14.01,2013-03-31 14:53:00,
2013-03-31 09:54:00,54.1,43.0,29.87,WNW,291,6.3,6.7,66,0.00,,FEW110,0.00,VWS V14.01,2013-03-31 14:54:00,
2013-03-31 09:55:00,54.3,44.8,29.87,NW,315,6.3,6.3,70,0.00,,FEW110,0.00,VWS V14.01,2013-03-31 14:55:00,
2013-03-31 09:58:00,54.5,42.6,29.87,WSW,252,4.9,5.4,64,0.00,,FEW110,0.00,VWS V14.01,2013-03-31 14:58:00,
2013-03-31 10:00:00,54.5,43.4,29.87,WNW,297,5.4,7.6,66,0.00,,FEW110,0.00,VWS V14.01,2013-03-31 15:00:00,
2013-03-31 10:01:00,54.5,42.6,29.87,WNW,283,2.7,5.8,64,0.00,,FEW110,0.00,VWS V14.01,2013-03-31 15:01:00,
2013-03-31 10:04:00,54.7,41.9,29.87,WNW,298,6.3,6.3,62,0.00,,FEW110,0.00,VWS V14.01,2013-03-31 15:04:00,
2013-03-31 10:05:00,54.9,43.7,29.87,West,276,6.3,7.6,66,0.00,,FEW110,0.00,VWS V14.01,2013-03-31 15:05:00,
2013-03-31 10:06:00,54.9,42.1,29.87,West,272,5.4,5.4,62,0.00,,FEW110,0.00,VWS V14.01,2013-03-31 15:06:00,
2013-03-31 10:10:00,55.2,42.4,29.87,WNW,282,7.6,7.6,62,0.00,,FEW110,0.00,VWS V14.01,2013-03-31 15:10:00,
2013-03-31 10:12:00,55.2,40.7,29.87,NW,318,8.7,8.7,58,0.00,,FEW110,0.00,VWS V14.01,2013-03-31 15:12:00,
2013-03-31 10:15:00,55.6,41.9,29.87,West,272,5.8,5.8,60,0.00,,FEW110,0.00,VWS V14.01,2013-03-31 15:15:00,
2013-03-31 10:16:00,55.6,41.0,29.87,WNW,293,5.8,6.3,58,0.00,,FEW110,0.00,VWS V14.01,2013-03-31 15:16:00,
2013-03-31 10:17:00,55.9,41.4,29.87,West,272,5.4,5.4,58,0.00,,FEW110,0.00,VWS V14.01,2013-03-31 15:17:00,
2013-03-31 10:21:00,56.7,40.2,29.87,NNW,328,6.3,6.7,54,0.00,,FEW110,0.00,VWS V14.01,2013-03-31 15:21:00,
2013-03-31 10:22:00,56.8,40.4,29.87,WNW,300,5.8,8.3,54,0.00,,FEW110,0.00,VWS V14.01,2013-03-31 15:22:00,
2013-03-31 10:23:00,57.2,40.7,29.87,NW,307,7.6,8.1,54,0.00,,FEW110,0.00,VWS V14.01,2013-03-31 15:23:00,
2013-03-31 10:26:00,57.7,41.2,29.87,NW,321,8.1,8.1,54,0.00,,FEW110,0.00,VWS V14.01,2013-03-31 15:26:00,
2013-03-31 10:27:00,57.7,40.2,29.87,NW,321,7.6,8.1,52,0.00,,FEW110,0.00,VWS V14.01,2013-03-31 15:27:00,
2013-03-31 10:29:00,57.9,40.4,29.87,West,280,5.4,5.4,52,0.00,,FEW110,0.00,VWS V14.01,2013-03-31 15:29:00,
2013-03-31 10:32:00,58.1,40.6,29.87,NW,321,8.7,8.7,52,0.00,,FEW110,0.00,VWS V14.01,2013-03-31 15:32:00,
2013-03-31 10:33:00,58.3,40.8,29.87,NNW,337,5.8,8.3,52,0.00,,FEW110,0.00,VWS V14.01,2013-03-31 15:33:00,
2013-03-31 10:35:00,58.1,40.6,29.87,NNW,336,6.7,11.0,52,0.00,,FEW110,0.00,VWS V14.01,2013-03-31 15:35:00,
2013-03-31 10:38:00,58.1,40.6,29.87,NW,316,7.6,7.6,52,0.00,,FEW110,0.00,VWS V14.01,2013-03-31 15:38:00,
2013-03-31 10:39:00,58.1,39.6,29.87,NW,320,3.6,6.3,50,0.00,,FEW110,0.00,VWS V14.01,2013-03-31 15:39:00,
2013-03-31 10:40:00,58.1,39.6,29.87,NNW,331,0.0,0.0,50,0.00,,FEW110,0.00,VWS V14.01,2013-03-31 15:40:00,
2013-03-31 10:44:00,58.1,41.6,29.87,NW,324,5.4,8.1,54,0.00,,FEW110,0.00,VWS V14.01,2013-03-31 15:44:00,
2013-03-31 10:47:00,57.7,39.2,29.87,North,8,9.2,9.2,50,0.00,,FEW110,0.00,VWS V14.01,2013-03-31 15:47:00,
2013-03-31 10:49:00,57.6,40.1,29.87,NE,49,6.3,8.7,52,0.00,,FEW110,0.00,VWS V14.01,2013-03-31 15:49:00,
2013-03-31 10:50:00,57.6,40.1,29.87,NW,319,6.3,7.6,52,0.00,,FEW110,0.00,VWS V14.01,2013-03-31 15:50:00,
2013-03-31 10:53:00,57.9,40.4,29.87,NNW,329,0.0,4.9,52,0.00,,FEW110,0.00,VWS V14.01,2013-03-31 15:53:00,
2013-03-31 10:54:00,58.1,40.6,29.87,NNW,329,0.0,0.0,52,0.00,,FEW110,0.00,VWS V14.01,2013-03-31 15:54:00,
2013-03-31 10:55:00,58.3,39.7,29.87,NNW,329,0.0,0.0,50,0.00,,FEW110,0.00,VWS V14.01,2013-03-31 15:55:00,
2013-03-31 10:58:00,59.2,40.6,29.87,NW,324,2.7,4.0,50,0.00,,FEW110,0.00,VWS V14.01,2013-03-31 15:58:00,
2013-03-31 10:59:00,59.2,40.6,29.87,SW,236,4.0,4.0,50,0.00,,FEW110,0.00,VWS V14.01,2013-03-31 15:59:00,
2013-03-31 11:00:00,59.2,40.6,29.87,SW,231,3.6,4.0,50,0.00,,FEW110,0.00,VWS V14.01,2013-03-31 16:00:00,
2013-03-31 11:01:00,59.2,40.6,29.87,SSW,199,3.6,3.6,50,0.00,,FEW110,0.00,VWS V14.01,2013-03-31 16:01:00,
2013-03-31 11:04:00,59.9,40.2,29.87,West,281,4.5,4.5,48,0.00,,FEW110,0.00,VWS V14.01,2013-03-31 16:04:00,
2013-03-31 11:05:00,60.1,40.3,29.87,West,273,3.6,4.5,48,0.00,,FEW110,0.00,VWS V14.01,2013-03-31 16:05:00,
2013-03-31 11:06:00,59.9,40.2,29.87,West,281,3.6,4.0,48,0.00,,FEW110,0.00,VWS V14.01,2013-03-31 16:06:00,
2013-03-31 11:09:00,60.4,40.7,29.87,West,268,2.7,2.7,48,0.00,,FEW110,0.00,VWS V14.01,2013-03-31 16:09:00,
2013-03-31 11:10:00,60.6,40.8,29.87,WSW,237,4.0,4.0,48,0.00,,FEW110,0.00,VWS V14.01,2013-03-31 16:10:00,
2013-03-31 11:11:00,60.8,41.0,29.87,WSW,253,4.9,5.8,48,0.00,,FEW110,0.00,VWS V14.01,2013-03-31 16:11:00,
2013-03-31 11:12:00,61.2,41.3,29.87,WNW,286,4.0,4.9,48,0.00,,FEW110,0.00,VWS V14.01,2013-03-31 16:12:00,
2013-03-31 11:15:00,61.9,42.0,29.87,WSW,240,0.0,0.0,48,0.00,,FEW110,0.00,VWS V14.01,2013-03-31 16:15:00,
2013-03-31 11:17:00,62.1,38.7,29.87,NW,311,5.8,5.8,42,0.00,,FEW110,0.00,VWS V14.01,2013-03-31 16:17:00,
2013-03-31 11:20:00,62.8,39.4,29.87,NW,320,4.0,5.8,42,0.00,,FEW110,0.00,VWS V14.01,2013-03-31 16:20:00,
2013-03-31 11:22:00,62.1,36.2,29.87,North,6,5.8,5.8,38,0.00,,FEW110,0.00,VWS V14.01,2013-03-31 16:22:00,
2013-03-31 11:23:00,62.2,36.3,29.87,West,271,4.0,4.0,38,0.00,,FEW110,0.00,VWS V14.01,2013-03-31 16:23:00,
2013-03-31 11:26:00,61.5,38.2,29.87,NNW,345,10.5,10.5,42,0.00,,FEW110,0.00,VWS V14.01,2013-03-31 16:26:00,
2013-03-31 11:28:00,61.2,37.9,29.87,NNW,327,8.1,8.1,42,0.00,,FEW110,0.00,VWS V14.01,2013-03-31 16:28:00,
2013-03-31 11:31:00,61.3,38.1,29.87,WNW,299,4.0,5.8,42,0.00,,FEW110,0.00,VWS V14.01,2013-03-31 16:31:00,
2013-03-31 11:33:00,61.2,37.9,29.87,NW,315,5.8,5.8,42,0.00,,FEW110,0.00,VWS V14.01,2013-03-31 16:33:00,
2013-03-31 11:34:00,61.2,37.9,29.87,NW,315,5.8,8.1,42,0.00,,FEW110,0.00,VWS V14.01,2013-03-31 16:34:00,
2013-03-31 11:36:00,60.1,34.4,29.87,WNW,288,5.4,6.3,38,0.00,,FEW110,0.00,VWS V14.01,2013-03-31 16:36:00,
2013-03-31 11:39:00,60.1,34.4,29.87,NNW,333,5.8,6.7,38,0.00,,FEW110,0.00,VWS V14.01,2013-03-31 16:39:00,
2013-03-31 11:44:00,60.6,34.9,29.87,NNW,328,11.0,11.0,38,0.00,,FEW110,0.00,VWS V14.01,2013-03-31 16:44:00,
2013-03-31 11:45:00,60.8,35.1,29.87,North,353,8.3,10.5,38,0.00,,FEW110,0.00,VWS V14.01,2013-03-31 16:45:00,
2013-03-31 11:49:00,60.6,34.9,29.87,WNW,301,8.7,8.7,38,0.00,,FEW110,0.00,VWS V14.01,2013-03-31 16:49:00,
2013-03-31 11:50:00,61.0,37.8,29.87,NNW,334,8.7,8.7,42,0.00,,FEW110,0.00,VWS V14.01,2013-03-31 16:50:00,
2013-03-31 11:51:00,61.0,37.8,29.87,North,353,10.5,10.5,42,0.00,,FEW110,0.00,VWS V14.01,2013-03-31 16:51:00,
2013-03-31 11:55:00,61.2,35.4,29.87,NW,316,8.7,13.2,38,0.00,,FEW110,0.00,VWS V14.01,2013-03-31 16:55:00,
2013-03-31 11:56:00,61.3,35.5,29.87,NW,314,8.1,11.0,38,0.00,,FEW110,0.00,VWS V14.01,2013-03-31 16:56:00,
2013-03-31 11:58:00,61.2,35.4,29.87,NW,316,11.0,12.3,38,0.00,,FEW110,0.00,VWS V14.01,2013-03-31 16:58:00,
2013-03-31 12:00:00,61.3,35.5,29.87,North,357,12.8,13.2,38,0.00,,FEW110,0.00,VWS V14.01,2013-03-31 17:00:00,
2013-03-31 12:02:00,61.5,31.4,29.87,NW,310,11.0,12.8,32,0.00,,FEW110,0.00,VWS V14.01,2013-03-31 17:02:00,
2013-03-31 12:03:00,61.3,31.2,29.87,NW,325,15.0,15.0,32,0.00,,FEW110,0.00,VWS V14.01,2013-03-31 17:03:00,
2013-03-31 12:06:00,61.7,31.6,29.87,NW,312,13.2,15.0,32,0.00,,FEW110,0.00,VWS V14.01,2013-03-31 17:06:00,
2013-03-31 12:07:00,61.7,31.6,29.87,NNW,327,11.0,11.0,32,0.00,,FEW110,0.00,VWS V14.01,2013-03-31 17:07:00,
2013-03-31 12:09:00,62.1,31.9,29.84,NW,315,8.7,10.5,32,0.00,,FEW110,0.00,VWS V14.01,2013-03-31 17:09:00,
2013-03-31 12:10:00,62.1,31.9,29.84,WNW,289,8.3,8.7,32,0.00,,FEW110,0.00,VWS V14.01,2013-03-31 17:10:00,
2013-03-31 12:11:00,62.4,32.2,29.84,West,268,5.4,6.3,32,0.00,,FEW110,0.00,VWS V14.01,2013-03-31 17:11:00,
2013-03-31 12:13:00,62.2,36.3,29.84,NW,320,8.7,8.7,38,0.00,,FEW110,0.00,VWS V14.01,2013-03-31 17:13:00,
2013-03-31 12:14:00,62.2,32.0,29.84,NNW,338,8.7,13.2,32,0.00,,FEW110,0.00,VWS V14.01,2013-03-31 17:14:00,
2013-03-31 12:15:00,62.2,32.0,29.84,NW,321,8.1,11.0,32,0.00,,FEW110,0.00,VWS V14.01,2013-03-31 17:15:00,
2013-03-31 12:17:00,62.1,36.2,29.84,NW,324,11.0,11.0,38,0.00,,FEW110,0.00,VWS V14.01,2013-03-31 17:17:00,
2013-03-31 12:19:00,62.1,36.2,29.84,NW,306,6.3,9.6,38,0.00,,FEW110,0.00,VWS V14.01,2013-03-31 17:19:00,
2013-03-31 12:20:00,61.9,36.0,29.84,NNW,332,5.8,8.1,38,0.00,,FEW110,0.00,VWS V14.01,2013-03-31 17:20:00,
2013-03-31 12:22:00,61.9,36.0,29.84,NW,324,12.3,15.4,38,0.00,,FEW110,0.00,VWS V14.01,2013-03-31 17:22:00,
2013-03-31 12:24:00,61.3,31.2,29.87,NNW,337,13.2,13.2,32,0.00,,FEW110,0.00,VWS V14.01,2013-03-31 17:24:00,
2013-03-31 12:25:00,61.3,35.5,29.87,NW,325,12.8,13.2,38,0.00,,FEW110,0.00,VWS V14.01,2013-03-31 17:25:00,
2013-03-31 12:26:00,60.8,30.8,29.87,NNW,330,10.5,10.5,32,0.00,,FEW110,0.00,VWS V14.01,2013-03-31 17:26:00,
2013-03-31 12:27:00,60.4,34.7,29.87,NW,317,10.5,12.3,38,0.00,,FEW110,0.00,VWS V14.01,2013-03-31 17:27:00,
2013-03-31 12:29:00,60.4,34.7,29.87,WNW,293,8.1,12.8,38,0.00,,FEW110,0.00,VWS V14.01,2013-03-31 17:29:00,
2013-03-31 12:30:00,60.1,34.4,29.87,NW,321,13.6,13.6,38,0.00,,FEW110,0.00,VWS V14.01,2013-03-31 17:30:00,
2013-03-31 12:33:00,59.2,33.6,29.87,NW,315,10.5,10.5,38,0.00,,FEW110,0.00,VWS V14.01,2013-03-31 17:33:00,
2013-03-31 12:35:00,59.7,34.1,29.87,NNW,346,10.5,10.5,38,0.00,,FEW110,0.00,VWS V14.01,2013-03-31 17:35:00,
2013-03-31 12:38:00,60.4,32.0,29.87,NW,325,10.5,14.5,34,0.00,,FEW110,0.00,VWS V14.01,2013-03-31 17:38:00,
2013-03-31 12:41:00,61.0,35.2,29.87,North,353,10.5,12.3,38,0.00,,FEW110,0.00,VWS V14.01,2013-03-31 17:41:00,
2013-03-31 12:42:00,61.3,31.2,29.87,NNW,328,10.5,10.5,32,0.00,,FEW110,0.00,VWS V14.01,2013-03-31 17:42:00,
2013-03-31 12:43:00,61.3,31.2,29.87,NNW,330,8.7,8.7,32,0.00,,FEW110,0.00,VWS V14.01,2013-03-31 17:43:00,
2013-03-31 12:44:00,61.3,31.2,29.87,NNW,330,7.6,8.7,32,0.00,,FEW110,0.00,VWS V14.01,2013-03-31 17:44:00,
2013-03-31 12:47:00,61.9,31.7,29.87,NNW,334,8.7,11.0,32,0.00,,FEW110,0.00,VWS V14.01,2013-03-31 17:47:00,
2013-03-31 12:49:00,61.9,31.7,29.87,NW,310,8.7,10.1,32,0.00,,FEW110,0.00,VWS V14.01,2013-03-31 17:49:00,
2013-03-31 12:52:00,61.9,31.7,29.87,NNW,339,8.7,12.8,32,0.00,,FEW110,0.00,VWS V14.01,2013-03-31 17:52:00,
2013-03-31 12:54:00,61.9,31.7,29.87,West,281,7.6,7.6,32,0.00,,FEW110,0.00,VWS V14.01,2013-03-31 17:54:00,
2013-03-31 12:57:00,61.9,31.7,29.87,NW,315,9.2,9.2,32,0.00,,FEW110,0.00,VWS V14.01,2013-03-31 17:57:00,
2013-03-31 12:58:00,61.9,31.7,29.87,NW,309,10.5,10.5,32,0.00,,FEW110,0.00,VWS V14.01,2013-03-31 17:58:00,
2013-03-31 12:59:00,61.9,31.7,29.87,NW,323,10.1,10.1,32,0.00,,FEW110,0.00,VWS V14.01,2013-03-31 17:59:00,
2013-03-31 13:03:00,62.4,32.2,29.87,NW,306,7.6,8.7,32,0.00,,FEW110,0.00,VWS V14.01,2013-03-31 18:03:00,
2013-03-31 13:05:00,62.8,32.5,29.87,WNW,285,8.3,8.3,32,0.00,,FEW110,0.00,VWS V14.01,2013-03-31 18:05:00,
2013-03-31 13:09:00,63.0,32.7,29.87,WNW,283,4.0,8.1,32,0.00,,FEW110,0.00,VWS V14.01,2013-03-31 18:09:00,
2013-03-31 13:11:00,62.6,32.3,29.87,NW,304,8.1,8.1,32,0.00,,FEW110,0.00,VWS V14.01,2013-03-31 18:11:00,
2013-03-31 13:14:00,62.8,32.5,29.87,NNW,327,10.1,12.8,32,0.00,,FEW110,0.00,VWS V14.01,2013-03-31 18:14:00,
2013-03-31 13:15:00,62.8,32.5,29.87,NW,316,13.6,14.1,32,0.00,,FEW110,0.00,VWS V14.01,2013-03-31 18:15:00,
2013-03-31 13:16:00,62.4,32.2,29.87,WNW,298,10.5,15.0,32,0.00,,FEW110,0.00,VWS V14.01,2013-03-31 18:16:00,
2013-03-31 13:17:00,62.2,32.0,29.87,NW,315,10.1,12.3,32,0.00,,FEW110,0.00,VWS V14.01,2013-03-31 18:17:00,
2013-03-31 13:19:00,61.7,31.6,29.87,NW,312,12.3,12.3,32,0.00,,FEW110,0.00,VWS V14.01,2013-03-31 18:19:00,
2013-03-31 13:20:00,61.9,31.7,29.87,NNW,327,12.3,12.3,32,0.00,,FEW110,0.00,VWS V14.01,2013-03-31 18:20:00,
2013-03-31 13:22:00,62.1,31.9,29.87,NW,319,10.5,10.5,32,0.00,,FEW110,0.00,VWS V14.01,2013-03-31 18:22:00,
2013-03-31 13:25:00,63.0,32.7,29.84,NW,304,11.9,13.2,32,0.00,,FEW110,0.00,VWS V14.01,2013-03-31 18:25:00,
2013-03-31 13:27:00,63.3,33.0,29.84,NNW,332,8.1,8.1,32,0.00,,FEW110,0.00,VWS V14.01,2013-03-31 18:27:00,
2013-03-31 13:28:00,63.0,32.7,29.84,NW,323,13.2,13.2,32,0.00,,FEW110,0.00,VWS V14.01,2013-03-31 18:28:00,
2013-03-31 13:30:00,63.1,32.8,29.84,NNW,330,15.4,15.4,32,0.00,,FEW110,0.00,VWS V14.01,2013-03-31 18:30:00,
2013-03-31 13:33:00,63.1,32.8,29.84,WNW,298,7.2,7.6,32,0.00,,FEW110,0.00,VWS V14.01,2013-03-31 18:33:00,
2013-03-31 13:34:00,63.3,33.0,29.84,WNW,283,6.3,8.1,32,0.00,,FEW110,0.00,VWS V14.01,2013-03-31 18:34:00,
2013-03-31 13:35:00,63.5,33.1,29.84,West,277,8.1,8.3,32,0.00,,FEW110,0.00,VWS V14.01,2013-03-31 18:35:00,
2013-03-31 13:38:00,63.9,33.5,29.84,NW,307,8.1,8.1,32,0.00,,FEW110,0.00,VWS V14.01,2013-03-31 18:38:00,
2013-03-31 13:39:00,64.2,33.8,29.84,WNW,299,6.3,8.1,32,0.00,,FEW110,0.00,VWS V14.01,2013-03-31 18:39:00,
2013-03-31 13:41:00,64.6,32.5,29.84,NW,322,15.9,15.9,30,0.00,,FEW110,0.00,VWS V14.01,2013-03-31 18:41:00,
2013-03-31 13:44:00,62.8,32.5,29.84,NW,322,15.0,15.4,32,0.00,,FEW110,0.00,VWS V14.01,2013-03-31 18:44:00,
2013-03-31 13:46:00,61.7,31.6,29.84,NW,322,15.0,15.0,32,0.00,,FEW110,0.00,VWS V14.01,2013-03-31 18:46:00,
2013-03-31 13:49:00,61.7,31.6,29.84,NNW,341,11.0,11.0,32,0.00,,FEW110,0.00,VWS V14.01,2013-03-31 18:49:00,
2013-03-31 13:50:00,61.7,31.6,29.84,NW,325,10.1,11.0,32,0.00,,FEW110,0.00,VWS V14.01,2013-03-31 18:50:00,
2013-03-31 13:51:00,62.4,32.2,29.84,North,357,8.1,8.7,32,0.00,,FEW110,0.00,VWS V14.01,2013-03-31 18:51:00,
2013-03-31 13:52:00,62.4,32.2,29.84,NW,307,10.5,10.5,32,0.00,,FEW110,0.00,VWS V14.01,2013-03-31 18:52:00,
2013-03-31 13:55:00,63.3,33.0,29.84,NW,323,13.6,13.6,32,0.00,,FEW110,0.00,VWS V14.01,2013-03-31 18:55:00,
2013-03-31 13:56:00,63.1,32.8,29.84,NW,325,17.0,17.0,32,0.00,,FEW110,0.00,VWS V14.01,2013-03-31 18:56:00,
2013-03-31 13:58:00,62.8,32.5,29.84,WNW,303,12.3,15.4,32,0.00,,FEW110,0.00,VWS V14.01,2013-03-31 18:58:00,
2013-03-31 14:00:00,62.4,32.2,29.84,NW,326,10.1,11.0,32,0.00,,FEW110,0.00,VWS V14.01,2013-03-31 19:00:00,
2013-03-31 14:01:00,62.4,32.2,29.84,NW,326,10.1,10.5,32,0.00,,FEW110,0.00,VWS V14.01,2013-03-31 19:01:00,
2013-03-31 14:04:00,62.1,31.9,29.84,NW,325,10.5,15.4,32,0.00,,FEW110,0.00,VWS V14.01,2013-03-31 19:04:00,
2013-03-31 14:05:00,62.6,32.3,29.84,NW,311,10.1,10.1,32,0.00,,FEW110,0.00,VWS V14.01,2013-03-31 19:05:00,
2013-03-31 14:06:00,62.6,32.3,29.84,NW,313,10.1,10.1,32,0.00,,FEW110,0.00,VWS V14.01,2013-03-31 19:06:00,
2013-03-31 14:09:00,63.5,33.1,29.84,NNW,333,5.8,10.5,32,0.00,,FEW110,0.00,VWS V14.01,2013-03-31 19:09:00,
2013-03-31 14:11:00,64.0,33.6,29.84,NW,304,11.0,11.0,32,0.00,,FEW110,0.00,VWS V14.01,2013-03-31 19:11:00,
2013-03-31 14:12:00,64.2,33.8,29.84,NW,312,10.1,11.0,32,0.00,,FEW110,0.00,VWS V14.01,2013-03-31 19:12:00,
2013-03-31 14:14:00,64.8,32.6,29.84,West,268,3.1,4.9,30,0.00,,FEW110,0.00,VWS V14.01,2013-03-31 19:14:00,
2013-03-31 14:15:00,64.9,32.8,29.84,WNW,302,6.3,6.3,30,0.00,,FEW110,0.00,VWS V14.01,2013-03-31 19:15:00,
2013-03-31 14:17:00,65.1,32.9,29.84,NW,325,15.0,15.0,30,0.00,,FEW110,0.00,VWS V14.01,2013-03-31 19:17:00,
2013-03-31 14:20:00,65.5,29.7,29.84,NW,316,8.3,13.2,26,0.00,,FEW110,0.00,VWS V14.01,2013-03-31 19:20:00,
2013-03-31 14:22:00,65.5,33.3,29.84,NNW,330,5.4,8.7,30,0.00,,FEW110,0.00,VWS V14.01,2013-03-31 19:22:00,
2013-03-31 14:23:00,65.3,29.6,29.84,NW,314,11.0,12.3,26,0.00,,FEW110,0.00,VWS V14.01,2013-03-31 19:23:00,
2013-03-31 14:25:00,65.1,29.4,29.84,NNW,331,15.4,15.4,26,0.00,,FEW110,0.00,VWS V14.01,2013-03-31 19:25:00,
2013-03-31 14:28:00,64.6,29.0,29.84,NW,314,8.3,12.3,26,0.00,,FEW110,0.00,VWS V14.01,2013-03-31 19:28:00,
2013-03-31 14:29:00,64.4,28.8,29.84,NW,323,11.9,12.3,26,0.00,,FEW110,0.00,VWS V14.01,2013-03-31 19:29:00,
2013-03-31 14:31:00,63.1,27.7,29.84,NW,314,11.0,12.3,26,0.00,,FEW110,0.00,VWS V14.01,2013-03-31 19:31:00,
2013-03-31 14:33:00,62.4,28.9,29.84,NW,324,6.3,8.7,28,0.00,,FEW110,0.00,VWS V14.01,2013-03-31 19:33:00,
2013-03-31 14:34:00,62.2,28.8,29.84,NW,324,13.2,13.2,28,0.00,,FEW110,0.00,VWS V14.01,2013-03-31 19:34:00,
2013-03-31 14:38:00,61.7,28.3,29.84,NW,307,8.7,8.7,28,0.00,,FEW110,0.00,VWS V14.01,2013-03-31 19:38:00,
2013-03-31 14:39:00,61.7,28.3,29.84,NW,320,10.1,10.1,28,0.00,,FEW110,0.00,VWS V14.01,2013-03-31 19:39:00,
2013-03-31 14:44:00,63.7,28.2,29.84,NW,323,10.5,11.0,26,0.00,,FEW110,0.00,VWS V14.01,2013-03-31 19:44:00,
2013-03-31 14:45:00,64.2,28.6,29.84,WNW,300,8.1,10.5,26,0.00,,FEW110,0.00,VWS V14.01,2013-03-31 19:45:00,
2013-03-31 14:49:00,64.8,29.1,29.84,WNW,290,10.1,15.0,26,0.00,,FEW110,0.00,VWS V14.01,2013-03-31 19:49:00,
2013-03-31 14:50:00,64.9,29.3,29.84,WNW,290,8.1,11.0,26,0.00,,FEW110,0.00,VWS V14.01,2013-03-31 19:50:00,
2013-03-31 14:52:00,65.1,29.4,29.84,NW,321,17.4,17.4,26,0.00,,FEW110,0.00,VWS V14.01,2013-03-31 19:52:00,
2013-03-31 14:54:00,63.9,28.3,29.84,NW,315,10.5,12.3,26,0.00,,FEW110,0.00,VWS V14.01,2013-03-31 19:54:00,
2013-03-31 14:56:00,63.7,28.2,29.84,WNW,291,8.1,10.5,26,0.00,,FEW110,0.00,VWS V14.01,2013-03-31 19:56:00,
2013-03-31 14:57:00,63.7,28.2,29.84,NW,305,6.3,8.1,26,0.00,,FEW110,0.00,VWS V14.01,2013-03-31 19:57:00,
2013-03-31 14:59:00,63.5,28.0,29.84,WNW,287,10.5,10.5,26,0.00,,FEW110,0.00,VWS V14.01,2013-03-31 19:59:00,
2013-03-31 15:01:00,63.7,28.2,29.84,WNW,303,10.1,10.1,26,0.00,,FEW110,0.00,VWS V14.01,2013-03-31 20:01:00,
2013-03-31 15:02:00,63.7,28.2,29.84,NNW,331,17.4,17.4,26,0.00,,FEW110,0.00,VWS V14.01,2013-03-31 20:02:00,
2013-03-31 15:04:00,63.0,27.6,29.84,NW,321,15.4,15.4,26,0.00,,FEW110,0.00,VWS V14.01,2013-03-31 20:04:00,
2013-03-31 15:07:00,62.4,28.9,29.84,NNW,329,10.5,13.2,28,0.00,,FEW110,0.00,VWS V14.01,2013-03-31 20:07:00,
2013-03-31 15:08:00,62.2,28.8,29.84,NW,318,15.4,15.4,28,0.00,,FEW110,0.00,VWS V14.01,2013-03-31 20:08:00,
2013-03-31 15:10:00,62.1,28.6,29.84,NW,318,15.4,15.4,28,0.00,,FEW110,0.00,VWS V14.01,2013-03-31 20:10:00,
2013-03-31 15:12:00,61.9,28.4,29.84,NW,320,13.2,17.4,28,0.00,,FEW110,0.00,VWS V14.01,2013-03-31 20:12:00,
2013-03-31 15:13:00,61.9,28.4,29.84,NNW,332,13.2,15.0,28,0.00,,FEW110,0.00,VWS V14.01,2013-03-31 20:13:00,
2013-03-31 15:14:00,61.7,28.3,29.84,NW,315,13.2,17.4,28,0.00,,FEW110,0.00,VWS V14.01,2013-03-31 20:14:00,
2013-03-31 15:15:00,61.7,28.3,29.84,NW,317,15.0,15.0,28,0.00,,FEW110,0.00,VWS V14.01,2013-03-31 20:15:00,
2013-03-31 15:17:00,62.1,28.6,29.84,NW,317,13.2,17.0,28,0.00,,FEW110,0.00,VWS V14.01,2013-03-31 20:17:00,
2013-03-31 15:18:00,62.1,28.6,29.84,NW,326,15.4,17.0,28,0.00,,FEW110,0.00,VWS V14.01,2013-03-31 20:18:00,
2013-03-31 15:20:00,62.4,28.9,29.84,NW,317,17.4,17.4,28,0.00,,FEW110,0.00,VWS V14.01,2013-03-31 20:20:00,
2013-03-31 15:21:00,62.6,27.3,29.84,WNW,298,12.3,17.4,26,0.00,,FEW110,0.00,VWS V14.01,2013-03-31 20:21:00,
2013-03-31 15:23:00,63.3,27.9,29.84,NNW,345,15.4,16.8,26,0.00,,FEW110,0.00,VWS V14.01,2013-03-31 20:23:00,
2013-03-31 15:25:00,64.0,28.5,29.84,NW,308,11.0,13.2,26,0.00,,FEW110,0.00,VWS V14.01,2013-03-31 20:25:00,
2013-03-31 15:26:00,64.2,28.6,29.84,NNW,332,12.8,13.2,26,0.00,,FEW110,0.00,VWS V14.01,2013-03-31 20:26:00,
2013-03-31 15:28:00,64.0,28.5,29.84,NNW,328,17.4,17.4,26,0.00,,FEW110,0.00,VWS V14.01,2013-03-31 20:28:00,
2013-03-31 15:30:00,63.5,28.0,29.84,NW,321,17.4,17.4,26,0.00,,FEW110,0.00,VWS V14.01,2013-03-31 20:30:00,
2013-03-31 15:32:00,63.3,27.9,29.84,NNW,327,21.5,21.5,26,0.00,,FEW110,0.00,VWS V14.01,2013-03-31 20:32:00,
2013-03-31 15:34:00,63.5,28.0,29.84,NNW,332,18.8,18.8,26,0.00,,FEW110,0.00,VWS V14.01,2013-03-31 20:34:00,
2013-03-31 15:35:00,63.1,27.7,29.84,NW,318,15.0,15.0,26,0.00,,FEW110,0.00,VWS V14.01,2013-03-31 20:35:00,
2013-03-31 15:38:00,62.8,27.4,29.84,NW,326,8.3,10.5,26,0.00,,FEW110,0.00,VWS V14.01,2013-03-31 20:38:00,
2013-03-31 15:39:00,62.8,27.4,29.84,NNW,327,8.1,8.7,26,0.00,,FEW110,0.00,VWS V14.01,2013-03-31 20:39:00,
2013-03-31 15:42:00,63.9,28.3,29.84,NW,312,13.2,15.4,26,0.00,,FEW110,0.00,VWS V14.01,2013-03-31 20:42:00,
2013-03-31 15:43:00,64.0,28.5,29.84,NW,318,15.0,17.0,26,0.00,,FEW110,0.00,VWS V14.01,2013-03-31 20:43:00,
2013-03-31 15:45:00,64.2,28.6,29.84,NNW,327,12.8,15.9,26,0.00,,FEW110,0.00,VWS V14.01,2013-03-31 20:45:00,
2013-03-31 15:47:00,64.2,28.6,29.84,NW,321,17.9,17.9,26,0.00,,FEW110,0.00,VWS V14.01,2013-03-31 20:47:00,
2013-03-31 15:50:00,62.1,28.6,29.84,NW,307,12.8,15.0,28,0.00,,FEW110,0.00,VWS V14.01,2013-03-31 20:50:00,
2013-03-31 15:51:00,61.9,28.4,29.84,NW,305,11.0,15.4,28,0.00,,FEW110,0.00,VWS V14.01,2013-03-31 20:51:00,
2013-03-31 15:52:00,61.5,28.1,29.84,NW,317,13.6,15.4,28,0.00,,FEW110,0.00,VWS V14.01,2013-03-31 20:52:00,
2013-03-31 15:55:00,61.5,28.1,29.84,NW,305,14.5,16.8,28,0.00,,FEW110,0.00,VWS V14.01,2013-03-31 20:55:00,
2013-03-31 15:57:00,61.5,28.1,29.84,NW,313,12.3,15.0,28,0.00,,FEW110,0.00,VWS V14.01,2013-03-31 20:57:00,
2013-03-31 15:58:00,61.7,28.3,29.84,NNW,333,13.2,13.2,28,0.00,,FEW110,0.00,VWS V14.01,2013-03-31 20:58:00,
2013-03-31 16:00:00,62.4,28.9,29.84,NW,319,10.5,15.4,28,0.00,,FEW110,0.00,VWS V14.01,2013-03-31 21:00:00,
2013-03-31 16:02:00,62.4,28.9,29.84,NW,323,17.4,17.4,28,0.00,,FEW110,0.00,VWS V14.01,2013-03-31 21:02:00,
2013-03-31 16:03:00,62.4,28.9,29.84,WNW,283,9.6,15.4,28,0.00,,FEW110,0.00,VWS V14.01,2013-03-31 21:03:00,
2013-03-31 16:06:00,62.4,28.9,29.84,NW,325,14.1,14.1,28,0.00,,FEW110,0.00,VWS V14.01,2013-03-31 21:06:00,
2013-03-31 16:07:00,62.6,27.3,29.84,NW,321,12.8,14.1,26,0.00,,FEW110,0.00,VWS V14.01,2013-03-31 21:07:00,
2013-03-31 16:08:00,62.6,27.3,29.84,NW,321,15.0,15.0,26,0.00,,FEW110,0.00,VWS V14.01,2013-03-31 21:08:00,
2013-03-31 16:12:00,62.6,27.3,29.84,North,0,12.8,15.0,26,0.00,,FEW110,0.00,VWS V14.01,2013-03-31 21:12:00,
2013-03-31 16:13:00,62.4,28.9,29.84,NW,320,15.0,16.8,28,0.00,,FEW110,0.00,VWS V14.01,2013-03-31 21:13:00,
2013-03-31 16:14:00,61.7,28.3,29.84,NNW,329,15.4,17.4,28,0.00,,FEW110,0.00,VWS V14.01,2013-03-31 21:14:00,
2013-03-31 16:18:00,61.7,28.3,29.84,NW,318,15.4,15.9,28,0.00,,FEW110,0.00,VWS V14.01,2013-03-31 21:18:00,
2013-03-31 16:20:00,62.1,28.6,29.84,WNW,300,12.3,19.7,28,0.00,,FEW110,0.00,VWS V14.01,2013-03-31 21:20:00,
2013-03-31 16:23:00,62.4,28.9,29.84,NNW,328,16.3,18.8,28,0.00,,FEW110,0.00,VWS V14.01,2013-03-31 21:23:00,
2013-03-31 16:25:00,62.4,28.9,29.84,NW,319,13.2,13.6,28,0.00,,FEW110,0.00,VWS V14.01,2013-03-31 21:25:00,
2013-03-31 16:28:00,62.6,27.3,29.84,NW,326,10.5,12.8,26,0.00,,FEW110,0.00,VWS V14.01,2013-03-31 21:28:00,
2013-03-31 16:29:00,62.8,27.4,29.84,WNW,301,10.5,12.8,26,0.00,,FEW110,0.00,VWS V14.01,2013-03-31 21:29:00,
2013-03-31 16:31:00,63.0,27.6,29.84,NW,319,12.8,12.8,26,0.00,,FEW110,0.00,VWS V14.01,2013-03-31 21:31:00,
2013-03-31 16:34:00,62.6,27.3,29.84,NNW,331,18.8,18.8,26,0.00,,BKN070,0.00,VWS V14.01,2013-03-31 21:34:00,
2013-03-31 16:38:00,61.5,28.1,29.84,NW,316,13.6,13.6,28,0.00,,BKN070,0.00,VWS V14.01,2013-03-31 21:38:00,
2013-03-31 16:39:00,62.1,28.6,29.84,NW,323,15.0,15.0,28,0.00,,BKN070,0.00,VWS V14.01,2013-03-31 21:39:00,
2013-03-31 16:40:00,62.2,28.8,29.84,NW,317,12.8,15.0,28,0.00,,BKN070,0.00,VWS V14.01,2013-03-31 21:40:00,
2013-03-31 16:43:00,62.2,28.8,29.84,NW,322,16.3,17.9,28,0.00,,BKN070,0.00,VWS V14.01,2013-03-31 21:43:00,
2013-03-31 16:45:00,62.2,28.8,29.84,NW,318,13.2,15.4,28,0.00,,BKN070,0.00,VWS V14.01,2013-03-31 21:45:00,
2013-03-31 16:48:00,61.9,28.4,29.84,NW,325,12.3,12.8,28,0.00,,BKN070,0.00,VWS V14.01,2013-03-31 21:48:00,
2013-03-31 16:50:00,62.2,28.8,29.84,NW,312,11.9,15.4,28,0.00,,BKN070,0.00,VWS V14.01,2013-03-31 21:50:00,
2013-03-31 16:51:00,62.4,28.9,29.84,NW,306,15.0,15.0,28,0.00,,BKN070,0.00,VWS V14.01,2013-03-31 21:51:00,
2013-03-31 16:54:00,62.4,28.9,29.84,NW,311,14.5,15.0,28,0.00,,BKN070,0.00,VWS V14.01,2013-03-31 21:54:00,
2013-03-31 16:55:00,62.6,27.3,29.84,NW,311,11.0,13.2,26,0.00,,BKN070,0.00,VWS V14.01,2013-03-31 21:55:00,
2013-03-31 16:57:00,62.4,28.9,29.84,NW,320,12.8,17.0,28,0.00,,BKN070,0.00,VWS V14.01,2013-03-31 21:57:00,
2013-03-31 16:59:00,62.6,27.3,29.84,NNW,333,12.3,15.4,26,0.00,,BKN070,0.00,VWS V14.01,2013-03-31 21:59:00,
2013-03-31 17:00:00,62.6,27.3,29.84,NNW,327,19.2,19.2,26,0.00,,BKN070,0.00,VWS V14.01,2013-03-31 22:00:00,
2013-03-31 17:02:00,62.6,27.3,29.84,NW,325,14.5,20.6,26,0.00,,BKN070,0.00,VWS V14.01,2013-03-31 22:02:00,
2013-03-31 17:03:00,62.1,28.6,29.84,NW,326,16.8,17.0,28,0.00,,BKN070,0.00,VWS V14.01,2013-03-31 22:03:00,
2013-03-31 17:05:00,61.9,28.4,29.84,NNW,331,16.8,17.0,28,0.00,,FEW055,0.00,VWS V14.01,2013-03-31 22:05:00,
2013-03-31 17:06:00,61.7,28.3,29.84,NNW,344,16.3,19.2,28,0.00,,FEW055,0.00,VWS V14.01,2013-03-31 22:06:00,
2013-03-31 17:07:00,61.5,28.1,29.84,NW,322,16.8,17.0,28,0.00,,FEW055,0.00,VWS V14.01,2013-03-31 22:07:00,
2013-03-31 17:08:00,61.3,28.0,29.87,NW,322,15.4,15.4,28,0.00,,FEW055,0.00,VWS V14.01,2013-03-31 22:08:00,
2013-03-31 17:10:00,61.0,27.7,29.87,NW,324,17.4,21.9,28,0.00,,FEW055,0.00,VWS V14.01,2013-03-31 22:10:00,
2013-03-31 17:12:00,60.6,27.4,29.87,NNW,342,15.0,15.0,28,0.00,,FEW055,0.00,VWS V14.01,2013-03-31 22:12:00,
2013-03-31 17:13:00,60.3,27.0,29.87,NW,307,16.3,16.3,28,0.00,,FEW055,0.00,VWS V14.01,2013-03-31 22:13:00,
2013-03-31 17:15:00,59.7,26.6,29.87,NW,313,12.3,17.4,28,0.00,,FEW055,0.00,VWS V14.01,2013-03-31 22:15:00,
2013-03-31 17:17:00,59.7,26.6,29.87,NW,316,10.1,13.2,28,0.00,,FEW055,0.00,VWS V14.01,2013-03-31 22:17:00,
2013-03-31 17:18:00,60.1,26.9,29.87,NW,306,10.5,11.0,28,0.00,,FEW055,0.00,VWS V14.01,2013-03-31 22:18:00,
2013-03-31 17:19:00,60.1,26.9,29.87,NNW,337,12.8,13.6,28,0.00,,FEW055,0.00,VWS V14.01,2013-03-31 22:19:00,
2013-03-31 17:20:00,60.1,26.9,29.87,NW,307,12.8,13.6,28,0.00,,FEW055,0.00,VWS V14.01,2013-03-31 22:20:00,
2013-03-31 17:23:00,60.3,27.0,29.87,NW,324,10.5,15.4,28,0.00,,FEW055,0.00,VWS V14.01,2013-03-31 22:23:00,
2013-03-31 17:24:00,60.3,27.0,29.87,NW,323,13.2,15.4,28,0.00,,FEW055,0.00,VWS V14.01,2013-03-31 22:24:00,
2013-03-31 17:26:00,60.1,26.9,29.87,NW,314,16.8,16.8,28,0.00,,FEW055,0.00,VWS V14.01,2013-03-31 22:26:00,
2013-03-31 17:29:00,60.4,27.2,29.87,NW,318,15.4,17.4,28,0.00,,FEW055,0.00,VWS V14.01,2013-03-31 22:29:00,
2013-03-31 17:30:00,60.4,27.2,29.87,NNW,332,13.2,17.4,28,0.00,,FEW055,0.00,VWS V14.01,2013-03-31 22:30:00,
2013-03-31 17:31:00,60.4,27.2,29.87,NW,317,13.2,14.1,28,0.00,,FEW055,0.00,VWS V14.01,2013-03-31 22:31:00,
2013-03-31 17:35:00,59.9,26.7,29.87,NW,316,12.8,15.0,28,0.00,,FEW055,0.00,VWS V14.01,2013-03-31 22:35:00,
2013-03-31 17:36:00,59.9,26.7,29.87,NW,313,15.4,15.4,28,0.00,,FEW055,0.00,VWS V14.01,2013-03-31 22:36:00,
2013-03-31 17:37:00,59.9,26.7,29.87,NW,320,15.0,16.8,28,0.00,,FEW055,0.00,VWS V14.01,2013-03-31 22:37:00,
2013-03-31 17:40:00,60.1,26.9,29.87,NW,324,11.0,13.2,28,0.00,,FEW055,0.00,VWS V14.01,2013-03-31 22:40:00,
2013-03-31 17:41:00,60.1,26.9,29.87,North,349,15.4,15.4,28,0.00,,FEW055,0.00,VWS V14.01,2013-03-31 22:41:00,
2013-03-31 17:42:00,60.3,27.0,29.87,NNW,334,12.8,19.7,28,0.00,,FEW055,0.00,VWS V14.01,2013-03-31 22:42:00,
2013-03-31 17:46:00,60.4,27.2,29.87,NW,324,8.1,10.1,28,0.00,,FEW055,0.00,VWS V14.01,2013-03-31 22:46:00,
2013-03-31 17:47:00,60.4,27.2,29.87,NW,315,11.0,11.0,28,0.00,,FEW055,0.00,VWS V14.01,2013-03-31 22:47:00,
2013-03-31 17:48:00,60.3,27.0,29.87,NW,311,12.8,12.8,28,0.00,,FEW055,0.00,VWS V14.01,2013-03-31 22:48:00,
2013-03-31 17:52:00,59.4,26.3,29.87,NW,305,15.0,19.7,28,0.00,,FEW055,0.00,VWS V14.01,2013-03-31 22:52:00,
2013-03-31 17:53:00,59.4,26.3,29.87,NW,315,15.9,15.9,28,0.00,,FEW055,0.00,VWS V14.01,2013-03-31 22:53:00,
2013-03-31 17:58:00,59.4,26.3,29.87,NW,322,12.3,13.2,28,0.00,,FEW055,0.00,VWS V14.01,2013-03-31 22:58:00,
2013-03-31 17:59:00,59.4,26.3,29.87,WNW,303,10.5,15.0,28,0.00,,FEW055,0.00,VWS V14.01,2013-03-31 22:59:00,
2013-03-31 18:00:00,59.4,26.3,29.87,NW,306,10.1,10.5,28,0.00,,FEW055,0.00,VWS V14.01,2013-03-31 23:00:00,
2013-03-31 18:03:00,59.4,26.3,29.87,NW,310,11.0,13.2,28,0.00,,FEW055,0.00,VWS V14.01,2013-03-31 23:03:00,
2013-03-31 18:04:00,59.4,26.3,29.87,NW,318,15.0,15.0,28,0.00,,CLR,0.00,VWS V14.01,2013-03-31 23:04:00,
2013-03-31 18:05:00,59.2,26.1,29.87,NW,313,12.3,15.0,28,0.00,,CLR,0.00,VWS V14.01,2013-03-31 23:05:00,
2013-03-31 18:08:00,59.0,26.0,29.87,NNW,328,13.2,13.2,28,0.00,,CLR,0.00,VWS V14.01,2013-03-31 23:08:00,
2013-03-31 18:10:00,59.0,26.0,29.87,NW,310,15.4,17.0,28,0.00,,CLR,0.00,VWS V14.01,2013-03-31 23:10:00,
2013-03-31 18:11:00,59.0,26.0,29.87,NW,316,15.4,15.4,28,0.00,,CLR,0.00,VWS V14.01,2013-03-31 23:11:00,
2013-03-31 18:13:00,58.8,25.8,29.87,NW,317,12.3,12.3,28,0.00,,CLR,0.00,VWS V14.01,2013-03-31 23:13:00,
2013-03-31 18:16:00,58.6,25.6,29.87,NW,315,12.8,15.4,28,0.00,,CLR,0.00,VWS V14.01,2013-03-31 23:16:00,
2013-03-31 18:17:00,58.5,25.5,29.87,NW,319,10.5,13.6,28,0.00,,CLR,0.00,VWS V14.01,2013-03-31 23:17:00,
2013-03-31 18:18:00,58.5,25.5,29.87,NW,306,10.5,11.0,28,0.00,,CLR,0.00,VWS V14.01,2013-03-31 23:18:00,
2013-03-31 18:21:00,58.3,25.3,29.87,NW,322,15.4,15.4,28,0.00,,CLR,0.00,VWS V14.01,2013-03-31 23:21:00,
2013-03-31 18:22:00,58.3,25.3,29.87,NW,321,16.3,16.3,28,0.00,,CLR,0.00,VWS V14.01,2013-03-31 23:22:00,
2013-03-31 18:24:00,58.3,25.3,29.87,NW,320,15.0,17.0,28,0.00,,CLR,0.00,VWS V14.01,2013-03-31 23:24:00,
2013-03-31 18:27:00,58.3,25.3,29.87,NW,319,10.1,10.1,28,0.00,,CLR,0.00,VWS V14.01,2013-03-31 23:27:00,
2013-03-31 18:28:00,58.3,25.3,29.87,NNW,329,11.4,12.8,28,0.00,,CLR,0.00,VWS V14.01,2013-03-31 23:28:00,
2013-03-31 18:29:00,58.1,25.2,29.87,NW,325,12.8,12.8,28,0.00,,CLR,0.00,VWS V14.01,2013-03-31 23:29:00,
2013-03-31 18:32:00,57.9,25.0,29.87,NW,324,10.5,11.9,28,0.00,,CLR,0.00,VWS V14.01,2013-03-31 23:32:00,
2013-03-31 18:33:00,57.9,25.0,29.87,NNW,329,11.4,13.2,28,0.00,,CLR,0.00,VWS V14.01,2013-03-31 23:33:00,
2013-03-31 18:34:00,57.9,25.0,29.87,NW,324,15.4,15.4,28,0.00,,CLR,0.00,VWS V14.01,2013-03-31 23:34:00,
2013-03-31 18:38:00,57.7,24.9,29.87,NNW,336,8.1,8.7,28,0.00,,CLR,0.00,VWS V14.01,2013-03-31 23:38:00,
2013-03-31 18:39:00,57.6,24.7,29.90,NW,321,8.3,10.1,28,0.00,,CLR,0.00,VWS V14.01,2013-03-31 23:39:00,
2013-03-31 18:40:00,57.6,24.7,29.90,NW,320,8.7,10.1,28,0.00,,CLR,0.00,VWS V14.01,2013-03-31 23:40:00,
2013-03-31 18:43:00,57.4,24.6,29.90,NW,319,12.3,14.5,28,0.00,,CLR,0.00,VWS V14.01,2013-03-31 23:43:00,
2013-03-31 18:45:00,57.2,24.4,29.90,NW,317,11.0,12.3,28,0.00,,CLR,0.00,VWS V14.01,2013-03-31 23:45:00,
2013-03-31 18:49:00,57.0,25.9,29.90,NW,307,8.7,10.5,30,0.00,,CLR,0.00,VWS V14.01,2013-03-31 23:49:00,
2013-03-31 18:50:00,56.8,25.8,29.90,NW,307,8.1,8.1,30,0.00,,CLR,0.00,VWS V14.01,2013-03-31 23:50:00,
2013-03-31 18:55:00,56.5,25.4,29.90,NW,321,8.7,11.0,30,0.00,,CLR,0.00,VWS V14.01,2013-03-31 23:55:00,
2013-03-31 18:56:00,56.3,25.3,29.90,NW,319,11.0,12.8,30,0.00,,CLR,0.00,VWS V14.01,2013-03-31 23:56:00,
2013-03-31 19:00:00,55.9,25.0,29.90,NNW,327,10.5,10.5,30,0.00,,CLR,0.00,VWS V14.01,2013-04-01 00:00:00,
2013-03-31 19:01:00,55.9,25.0,29.90,NW,321,12.3,12.3,30,0.00,,CLR,0.00,VWS V14.01,2013-04-01 00:01:00,
2013-03-31 19:02:00,55.9,25.0,29.90,NW,322,11.0,12.3,30,0.00,,CLR,0.00,VWS V14.01,2013-04-01 00:02:00,
2013-03-31 19:06:00,55.6,24.7,29.90,NW,312,8.7,12.8,30,0.00,,CLR,0.00,VWS V14.01,2013-04-01 00:06:00,
2013-03-31 19:07:00,55.6,24.7,29.90,NW,324,8.7,10.5,30,0.00,,CLR,0.00,VWS V14.01,2013-04-01 00:07:00,
2013-03-31 19:08:00,55.4,24.5,29.90,NW,317,8.7,11.0,30,0.00,,CLR,0.00,VWS V14.01,2013-04-01 00:08:00,
2013-03-31 19:11:00,55.0,24.2,29.90,NW,305,12.8,12.8,30,0.00,,CLR,0.00,VWS V14.01,2013-04-01 00:11:00,
2013-03-31 19:12:00,54.9,24.0,29.90,NW,318,10.5,12.8,30,0.00,,CLR,0.00,VWS V14.01,2013-04-01 00:12:00,
2013-03-31 19:13:00,54.7,23.9,29.90,NW,321,11.0,11.4,30,0.00,,CLR,0.00,VWS V14.01,2013-04-01 00:13:00,
2013-03-31 19:16:00,54.5,23.7,29.90,NW,319,10.5,10.5,30,0.00,,CLR,0.00,VWS V14.01,2013-04-01 00:16:00,
2013-03-31 19:17:00,54.1,23.4,29.90,NNW,332,8.1,8.7,30,0.00,,CLR,0.00,VWS V14.01,2013-04-01 00:17:00,
2013-03-31 19:18:00,54.1,23.4,29.90,NNW,343,8.7,8.7,30,0.00,,CLR,0.00,VWS V14.01,2013-04-01 00:18:00,
2013-03-31 19:19:00,53.6,22.9,29.90,NW,326,10.5,11.0,30,0.00,,CLR,0.00,VWS V14.01,2013-04-01 00:19:00,
2013-03-31 19:21:00,53.2,24.2,29.90,NW,324,12.3,14.1,32,0.00,,CLR,0.00,VWS V14.01,2013-04-01 00:21:00,
2013-03-31 19:22:00,53.2,24.2,29.90,NW,316,11.9,14.1,32,0.00,,CLR,0.00,VWS V14.01,2013-04-01 00:22:00,
2013-03-31 19:23:00,53.1,24.0,29.90,NW,320,10.1,11.9,32,0.00,,CLR,0.00,VWS V14.01,2013-04-01 00:23:00,
2013-03-31 19:25:00,53.1,24.0,29.90,NNW,331,7.6,10.1,32,0.00,,CLR,0.00,VWS V14.01,2013-04-01 00:25:00,
2013-03-31 19:28:00,52.7,23.7,29.90,NW,321,12.8,12.8,32,0.00,,CLR,0.00,VWS V14.01,2013-04-01 00:28:00,
2013-03-31 19:31:00,52.2,23.2,29.90,NW,317,8.1,11.0,32,0.00,,CLR,0.00,VWS V14.01,2013-04-01 00:31:00,
2013-03-31 19:33:00,52.2,23.2,29.90,NW,321,9.2,12.3,32,0.00,,CLR,0.00,VWS V14.01,2013-04-01 00:33:00,
2013-03-31 19:36:00,52.0,23.1,29.90,NW,308,8.7,10.5,32,0.00,,CLR,0.00,VWS V14.01,2013-04-01 00:36:00,
2013-03-31 19:38:00,51.8,22.9,29.90,NNW,335,10.1,11.0,32,0.00,,CLR,0.00,VWS V14.01,2013-04-01 00:38:00,
2013-03-31 19:39:00,51.8,22.9,29.90,NW,311,10.1,12.8,32,0.00,,CLR,0.00,VWS V14.01,2013-04-01 00:39:00,
2013-03-31 19:40:00,51.8,22.9,29.90,NW,320,8.1,11.0,32,0.00,,CLR,0.00,VWS V14.01,2013-04-01 00:40:00,
2013-03-31 19:42:00,51.4,22.6,29.90,NW,322,11.0,11.0,32,0.00,,CLR,0.00,VWS V14.01,2013-04-01 00:42:00,
2013-03-31 19:44:00,51.4,22.6,29.90,NW,311,12.8,12.8,32,0.00,,CLR,0.00,VWS V14.01,2013-04-01 00:44:00,
2013-03-31 19:45:00,51.4,22.6,29.90,NW,313,10.1,11.0,32,0.00,,CLR,0.00,VWS V14.01,2013-04-01 00:45:00,
2013-03-31 19:47:00,51.6,22.7,29.90,NW,325,8.7,10.1,32,0.00,,CLR,0.00,VWS V14.01,2013-04-01 00:47:00,
2013-03-31 19:49:00,51.4,22.6,29.90,NW,317,10.1,12.3,32,0.00,,CLR,0.00,VWS V14.01,2013-04-01 00:49:00,
2013-03-31 19:50:00,51.6,22.7,29.90,NW,310,13.2,13.2,32,0.00,,CLR,0.00,VWS V14.01,2013-04-01 00:50:00,
2013-03-31 19:53:00,51.4,22.6,29.93,NW,317,10.5,12.3,32,0.00,,CLR,0.00,VWS V14.01,2013-04-01 00:53:00,
2013-03-31 19:54:00,51.4,22.6,29.93,NW,322,15.4,15.4,32,0.00,,CLR,0.00,VWS V14.01,2013-04-01 00:54:00,
2013-03-31 19:55:00,51.3,22.4,29.93,NW,308,13.2,15.4,32,0.00,,CLR,0.00,VWS V14.01,2013-04-01 00:55:00,
2013-03-31 19:59:00,51.3,22.4,29.93,NW,319,11.0,12.8,32,0.00,,CLR,0.00,VWS V14.01,2013-04-01 00:59:00,
2013-03-31 20:00:00,51.1,22.3,29.93,NW,317,12.8,12.8,32,0.00,,CLR,0.00,VWS V14.01,2013-04-01 01:00:00,
2013-03-31 20:02:00,50.9,22.1,29.93,NW,322,11.9,11.9,32,0.00,,CLR,0.00,VWS V14.01,2013-04-01 01:02:00,
2013-03-31 20:05:00,50.7,22.0,29.93,NNW,329,12.3,12.3,32,0.00,,CLR,0.00,VWS V14.01,2013-04-01 01:05:00,
2013-03-31 20:07:00,50.7,22.0,29.93,NW,322,8.7,10.5,32,0.00,,CLR,0.00,VWS V14.01,2013-04-01 01:07:00,
2013-03-31 20:08:00,50.7,22.0,29.93,NNW,328,11.0,11.0,32,0.00,,CLR,0.00,VWS V14.01,2013-04-01 01:08:00,
2013-03-31 20:10:00,50.4,21.6,29.93,NNW,327,10.1,10.1,32,0.00,,CLR,0.00,VWS V14.01,2013-04-01 01:10:00,
2013-03-31 20:12:00,50.2,21.5,29.93,NW,326,11.0,12.8,32,0.00,,CLR,0.00,VWS V14.01,2013-04-01 01:12:00,
2013-03-31 20:13:00,50.4,21.6,29.93,NNW,341,10.5,10.5,32,0.00,,CLR,0.00,VWS V14.01,2013-04-01 01:13:00,
2013-03-31 20:16:00,50.2,21.5,29.93,NNW,331,10.5,10.5,32,0.00,,CLR,0.00,VWS V14.01,2013-04-01 01:16:00,
2013-03-31 20:18:00,49.8,21.2,29.93,NNW,335,8.1,10.1,32,0.00,,CLR,0.00,VWS V14.01,2013-04-01 01:18:00,
2013-03-31 20:19:00,49.6,21.0,29.93,NNW,341,6.3,9.2,32,0.00,,CLR,0.00,VWS V14.01,2013-04-01 01:19:00,
2013-03-31 20:21:00,49.5,20.9,29.93,NNW,348,8.3,8.7,32,0.00,,CLR,0.00,VWS V14.01,2013-04-01 01:21:00,
2013-03-31 20:23:00,49.1,20.5,29.93,NW,326,12.3,12.3,32,0.00,,CLR,0.00,VWS V14.01,2013-04-01 01:23:00,
2013-03-31 20:24:00,49.1,20.5,29.93,NNW,334,11.0,12.3,32,0.00,,CLR,0.00,VWS V14.01,2013-04-01 01:24:00,
2013-03-31 20:25:00,49.1,20.5,29.93,NNW,335,11.0,11.0,32,0.00,,CLR,0.00,VWS V14.01,2013-04-01 01:25:00,
2013-03-31 20:28:00,48.9,20.4,29.93,NW,325,10.5,11.0,32,0.00,,CLR,0.00,VWS V14.01,2013-04-01 01:28:00,
2013-03-31 20:29:00,48.9,20.4,29.93,NNW,339,10.1,11.0,32,0.00,,CLR,0.00,VWS V14.01,2013-04-01 01:29:00,
2013-03-31 20:30:00,48.9,20.4,29.93,NNW,330,11.0,11.0,32,0.00,,CLR,0.00,VWS V14.01,2013-04-01 01:30:00,
2013-03-31 20:34:00,48.7,20.2,29.93,North,357,8.1,11.9,32,0.00,,CLR,0.00,VWS V14.01,2013-04-01 01:34:00,
2013-03-31 20:35:00,48.7,20.2,29.93,NNW,339,11.0,11.0,32,0.00,,CLR,0.00,VWS V14.01,2013-04-01 01:35:00,
2013-03-31 20:39:00,48.9,20.4,29.93,NW,324,12.3,13.6,32,0.00,,CLR,0.00,VWS V14.01,2013-04-01 01:39:00,
2013-03-31 20:40:00,48.9,20.4,29.93,NNW,330,10.1,12.8,32,0.00,,CLR,0.00,VWS V14.01,2013-04-01 01:40:00,
2013-03-31 20:41:00,48.7,20.2,29.93,NNW,341,10.1,11.0,32,0.00,,CLR,0.00,VWS V14.01,2013-04-01 01:41:00,
2013-03-31 20:44:00,49.1,20.5,29.93,NNW,335,8.7,12.3,32,0.00,,CLR,0.00,VWS V14.01,2013-04-01 01:44:00,
2013-03-31 20:45:00,48.9,20.4,29.93,NNW,338,8.7,10.5,32,0.00,,CLR,0.00,VWS V14.01,2013-04-01 01:45:00,
2013-03-31 20:46:00,48.9,20.4,29.93,NNW,339,8.3,8.7,32,0.00,,CLR,0.00,VWS V14.01,2013-04-01 01:46:00,
2013-03-31 20:49:00,48.6,20.1,29.93,NNW,344,10.1,11.0,32,0.00,,CLR,0.00,VWS V14.01,2013-04-01 01:49:00,
2013-03-31 20:50:00,48.4,19.9,29.93,NNW,343,8.3,9.2,32,0.00,,CLR,0.00,VWS V14.01,2013-04-01 01:50:00,
2013-03-31 20:51:00,48.2,19.7,29.93,North,349,10.5,10.5,32,0.00,,CLR,0.00,VWS V14.01,2013-04-01 01:51:00,
2013-03-31 20:52:00,48.2,19.7,29.93,North,353,8.7,11.0,32,0.00,,CLR,0.00,VWS V14.01,2013-04-01 01:52:00,
2013-03-31 20:55:00,47.8,20.9,29.96,North,353,7.6,9.2,34,0.00,,CLR,0.00,VWS V14.01,2013-04-01 01:55:00,
2013-03-31 20:56:00,47.7,20.7,29.96,North,3,8.1,10.5,34,0.00,,CLR,0.00,VWS V14.01,2013-04-01 01:56:00,
2013-03-31 20:57:00,47.5,20.5,29.96,North,0,10.1,10.5,34,0.00,,CLR,0.00,VWS V14.01,2013-04-01 01:57:00,
2013-03-31 21:00:00,47.5,20.5,29.96,NNE,19,18.8,18.8,34,0.00,,CLR,0.00,VWS V14.01,2013-04-01 02:00:00,
2013-03-31 21:01:00,47.7,20.7,29.96,North,0,14.1,18.8,34,0.00,,CLR,0.00,VWS V14.01,2013-04-01 02:01:00,
2013-03-31 21:02:00,47.7,20.7,29.96,North,9,10.5,14.1,34,0.00,,CLR,0.00,VWS V14.01,2013-04-01 02:02:00,
2013-03-31 21:05:00,47.5,20.5,29.96,North,2,10.5,15.4,34,0.00,,CLR,0.00,VWS V14.01,2013-04-01 02:05:00,
2013-03-31 21:07:00,47.3,20.4,29.96,North,10,16.3,16.3,34,0.00,,CLR,0.00,VWS V14.01,2013-04-01 02:07:00,
2013-03-31 21:08:00,47.1,20.2,29.96,North,6,17.4,17.4,34,0.00,,CLR,0.00,VWS V14.01,2013-04-01 02:08:00,
2013-03-31 21:09:00,47.1,20.2,29.96,NNE,12,12.3,17.4,34,0.00,,CLR,0.00,VWS V14.01,2013-04-01 02:09:00,
2013-03-31 21:10:00,46.8,19.9,29.96,North,2,15.4,15.4,34,0.00,,CLR,0.00,VWS V14.01,2013-04-01 02:10:00,
2013-03-31 21:13:00,46.4,19.6,29.96,North,1,13.2,13.2,34,0.00,,CLR,0.00,VWS V14.01,2013-04-01 02:13:00,
2013-03-31 21:14:00,46.4,19.6,29.96,North,2,15.0,15.0,34,0.00,,CLR,0.00,VWS V14.01,2013-04-01 02:14:00,
2013-03-31 21:15:00,46.2,19.4,29.96,North,3,15.9,15.9,34,0.00,,CLR,0.00,VWS V14.01,2013-04-01 02:15:00,
2013-03-31 21:19:00,46.0,19.3,29.96,North,6,13.2,15.4,34,0.00,,CLR,0.00,VWS V14.01,2013-04-01 02:19:00,
2013-03-31 21:21:00,45.9,19.1,29.96,North,5,15.0,16.3,34,0.00,,CLR,0.00,VWS V14.01,2013-04-01 02:21:00,
2013-03-31 21:22:00,45.9,19.1,29.96,North,353,15.0,15.9,34,0.00,,CLR,0.00,VWS V14.01,2013-04-01 02:22:00,
2013-03-31 21:25:00,45.7,18.9,29.96,North,353,11.9,12.8,34,0.00,,CLR,0.00,VWS V14.01,2013-04-01 02:25:00,
2013-03-31 21:27:00,45.5,18.8,29.96,North,0,13.2,14.1,34,0.00,,CLR,0.00,VWS V14.01,2013-04-01 02:27:00,
2013-03-31 21:30:00,45.3,18.6,29.96,North,4,12.8,15.0,34,0.00,,CLR,0.00,VWS V14.01,2013-04-01 02:30:00,
2013-03-31 21:33:00,45.1,18.5,29.96,North,357,17.0,17.0,34,0.00,,CLR,0.00,VWS V14.01,2013-04-01 02:33:00,
2013-03-31 21:36:00,45.0,18.3,29.96,North,357,15.0,15.0,34,0.00,,CLR,0.00,VWS V14.01,2013-04-01 02:36:00,
2013-03-31 21:37:00,44.8,18.1,29.96,North,0,15.0,15.0,34,0.00,,CLR,0.00,VWS V14.01,2013-04-01 02:37:00,
2013-03-31 21:38:00,44.8,18.1,29.96,NNW,343,11.9,15.0,34,0.00,,CLR,0.00,VWS V14.01,2013-04-01 02:38:00,
2013-03-31 21:41:00,44.6,18.0,29.96,North,357,12.8,13.2,34,0.00,,CLR,0.00,VWS V14.01,2013-04-01 02:41:00,
2013-03-31 21:43:00,44.6,18.0,29.96,North,0,12.8,13.2,34,0.00,,CLR,0.00,VWS V14.01,2013-04-01 02:43:00,
2013-03-31 21:44:00,44.6,18.0,29.96,NNE,16,15.4,15.4,34,0.00,,CLR,0.00,VWS V14.01,2013-04-01 02:44:00,
2013-03-31 21:47:00,44.2,19.0,29.96,WNW,291,13.2,13.6,36,0.00,,CLR,0.00,VWS V14.01,2013-04-01 02:47:00,
2013-03-31 21:48:00,44.2,19.0,29.96,NNW,341,9.6,11.4,36,0.00,,CLR,0.00,VWS V14.01,2013-04-01 02:48:00,
2013-03-31 21:49:00,44.2,19.0,29.96,North,0,11.0,11.4,36,0.00,,CLR,0.00,VWS V14.01,2013-04-01 02:49:00,
2013-03-31 21:53:00,44.2,19.0,29.96,NNW,339,12.8,15.0,36,0.00,,CLR,0.00,VWS V14.01,2013-04-01 02:53:00,
2013-03-31 21:54:00,44.2,19.0,29.99,NNE,23,12.8,12.8,36,0.00,,CLR,0.00,VWS V14.01,2013-04-01 02:54:00,
2013-03-31 21:56:00,44.1,18.8,29.99,North,353,10.1,11.0,36,0.00,,CLR,0.00,VWS V14.01,2013-04-01 02:56:00,
2013-03-31 21:58:00,43.9,18.7,29.99,NNW,341,8.3,13.2,36,0.00,,CLR,0.00,VWS V14.01,2013-04-01 02:58:00,
2013-03-31 21:59:00,43.9,21.1,29.99,North,0,11.4,12.8,40,0.00,,CLR,0.00,VWS V14.01,2013-04-01 02:59:00,
2013-03-31 22:03:00,43.5,20.8,29.99,North,7,10.1,12.8,40,0.00,,CLR,0.00,VWS V14.01,2013-04-01 03:03:00,
2013-03-31 22:04:00,43.5,20.8,29.99,North,353,11.0,11.9,40,0.00,,CLR,0.00,VWS V14.01,2013-04-01 03:04:00,
2013-03-31 22:05:00,43.3,20.6,29.99,NNE,16,11.0,17.0,40,0.00,,CLR,0.00,VWS V14.01,2013-04-01 03:05:00,
2013-03-31 22:08:00,43.3,20.6,29.99,North,353,10.1,13.2,40,0.00,,CLR,0.00,VWS V14.01,2013-04-01 03:08:00,
2013-03-31 22:09:00,43.3,20.6,29.99,NNE,13,15.0,15.0,40,0.00,,CLR,0.00,VWS V14.01,2013-04-01 03:09:00,
2013-03-31 22:10:00,43.2,20.5,29.99,North,0,13.2,13.2,40,0.00,,CLR,0.00,VWS V14.01,2013-04-01 03:10:00,
2013-03-31 22:13:00,43.2,20.5,29.99,North,4,12.8,13.2,40,0.00,,CLR,0.00,VWS V14.01,2013-04-01 03:13:00,
2013-03-31 22:14:00,43.2,20.5,29.99,North,11,11.0,14.1,40,0.00,,CLR,0.00,VWS V14.01,2013-04-01 03:14:00,
2013-03-31 22:15:00,43.0,20.3,29.99,North,7,13.6,13.6,40,0.00,,CLR,0.00,VWS V14.01,2013-04-01 03:15:00,
2013-03-31 22:16:00,43.0,20.3,29.99,North,8,14.1,14.5,40,0.00,,CLR,0.00,VWS V14.01,2013-04-01 03:16:00,
2013-03-31 22:19:00,42.8,20.2,29.99,North,5,12.8,15.9,40,0.00,,CLR,0.00,VWS V14.01,2013-04-01 03:19:00,
2013-03-31 22:20:00,42.8,20.2,29.99,North,9,17.0,17.0,40,0.00,,CLR,0.00,VWS V14.01,2013-04-01 03:20:00,
2013-03-31 22:21:00,42.8,20.2,29.99,North,8,15.0,15.4,40,0.00,,CLR,0.00,VWS V14.01,2013-04-01 03:21:00,
2013-03-31 22:25:00,42.6,21.1,29.99,North,10,13.2,15.4,42,0.00,,CLR,0.00,VWS V14.01,2013-04-01 03:25:00,
2013-03-31 22:26:00,42.4,21.0,29.99,North,353,15.4,15.4,42,0.00,,CLR,0.00,VWS V14.01,2013-04-01 03:26:00,
2013-03-31 22:30:00,42.3,20.8,29.99,North,0,13.2,15.4,42,0.00,,CLR,0.00,VWS V14.01,2013-04-01 03:30:00,
2013-03-31 22:31:00,42.3,20.8,29.99,North,1,12.3,15.4,42,0.00,,CLR,0.00,VWS V14.01,2013-04-01 03:31:00,
2013-03-31 22:32:00,42.3,20.8,29.99,North,5,13.2,15.4,42,0.00,,CLR,0.00,VWS V14.01,2013-04-01 03:32:00,
2013-03-31 22:36:00,42.1,20.7,29.99,North,357,17.4,17.4,42,0.00,,CLR,0.00,VWS V14.01,2013-04-01 03:36:00,
2013-03-31 22:37:00,42.1,20.7,29.99,North,0,12.3,15.0,42,0.00,,CLR,0.00,VWS V14.01,2013-04-01 03:37:00,
2013-03-31 22:38:00,42.1,20.7,29.99,North,8,15.0,15.0,42,0.00,,CLR,0.00,VWS V14.01,2013-04-01 03:38:00,
2013-03-31 22:41:00,41.9,20.5,30.02,North,0,15.0,17.4,42,0.00,,CLR,0.00,VWS V14.01,2013-04-01 03:41:00,
2013-03-31 22:42:00,41.9,20.5,30.02,North,353,15.0,18.8,42,0.00,,CLR,0.00,VWS V14.01,2013-04-01 03:42:00,
2013-03-31 22:43:00,41.7,20.3,30.02,North,353,10.5,12.8,42,0.00,,CLR,0.00,VWS V14.01,2013-04-01 03:43:00,
2013-03-31 22:44:00,41.7,20.3,30.02,NNW,346,10.5,11.4,42,0.00,,CLR,0.00,VWS V14.01,2013-04-01 03:44:00,
2013-03-31 22:47:00,41.5,20.2,30.02,NNW,331,17.9,18.8,42,0.00,,CLR,0.00,VWS V14.01,2013-04-01 03:47:00,
2013-03-31 22:48:00,41.5,20.2,30.02,NNW,342,10.5,17.9,42,0.00,,CLR,0.00,VWS V14.01,2013-04-01 03:48:00,
2013-03-31 22:49:00,41.5,20.2,30.02,North,353,12.8,17.0,42,0.00,,CLR,0.00,VWS V14.01,2013-04-01 03:49:00,
2013-03-31 22:52:00,41.4,20.0,30.02,North,1,11.4,15.4,42,0.00,,CLR,0.00,VWS V14.01,2013-04-01 03:52:00,
2013-03-31 22:53:00,41.4,20.0,30.02,North,2,12.3,15.4,42,0.00,,CLR,0.00,VWS V14.01,2013-04-01 03:53:00,
2013-03-31 22:54:00,41.2,19.9,30.02,North,10,13.2,13.2,42,0.00,,CLR,0.00,VWS V14.01,2013-04-01 03:54:00,
2013-03-31 22:58:00,41.2,19.9,30.02,North,357,15.0,15.0,42,0.00,,CLR,0.00,VWS V14.01,2013-04-01 03:58:00,
2013-03-31 22:59:00,41.0,19.7,30.02,North,4,11.0,13.2,42,0.00,,CLR,0.00,VWS V14.01,2013-04-01 03:59:00,
2013-03-31 23:00:00,41.0,19.7,30.02,North,2,12.8,13.2,42,0.00,,CLR,0.00,VWS V14.01,2013-04-01 04:00:00,
2013-03-31 23:05:00,40.6,19.4,30.02,North,0,12.8,15.0,42,0.00,,CLR,0.00,VWS V14.01,2013-04-01 04:05:00,
2013-03-31 23:06:00,40.6,19.4,30.02,North,353,10.1,12.8,42,0.00,,CLR,0.00,VWS V14.01,2013-04-01 04:06:00,
2013-03-31 23:10:00,40.6,19.4,30.02,NNW,341,12.8,12.8,42,0.00,,CLR,0.00,VWS V14.01,2013-04-01 04:10:00,
2013-03-31 23:11:00,40.6,19.4,30.02,North,0,10.5,12.8,42,0.00,,CLR,0.00,VWS V14.01,2013-04-01 04:11:00,
2013-03-31 23:12:00,40.5,19.2,30.02,NNW,346,11.4,13.2,42,0.00,,CLR,0.00,VWS V14.01,2013-04-01 04:12:00,
2013-03-31 23:15:00,40.5,19.2,30.02,North,350,11.0,11.0,42,0.00,,CLR,0.00,VWS V14.01,2013-04-01 04:15:00,
2013-03-31 23:16:00,40.5,19.2,30.02,North,353,10.1,11.0,42,0.00,,CLR,0.00,VWS V14.01,2013-04-01 04:16:00,
2013-03-31 23:18:00,40.3,19.0,30.02,NNW,348,8.1,13.2,42,0.00,,CLR,0.00,VWS V14.01,2013-04-01 04:18:00,
2013-03-31 23:20:00,40.3,19.0,30.02,North,357,8.1,8.1,42,0.00,,CLR,0.00,VWS V14.01,2013-04-01 04:20:00,
2013-03-31 23:21:00,40.3,19.0,30.02,North,353,13.2,13.2,42,0.00,,CLR,0.00,VWS V14.01,2013-04-01 04:21:00,
2013-03-31 23:22:00,40.1,18.9,30.02,North,353,10.5,10.5,42,0.00,,CLR,0.00,VWS V14.01,2013-04-01 04:22:00,
2013-03-31 23:23:00,40.1,18.9,30.02,NNE,13,12.8,12.8,42,0.00,,CLR,0.00,VWS V14.01,2013-04-01 04:23:00,
2013-03-31 23:27:00,40.3,19.0,30.02,NNE,12,8.7,12.3,42,0.00,,CLR,0.00,VWS V14.01,2013-04-01 04:27:00,
2013-03-31 23:28:00,40.1,18.9,30.02,North,357,9.6,10.1,42,0.00,,CLR,0.00,VWS V14.01,2013-04-01 04:28:00,
2013-03-31 23:29:00,40.1,18.9,30.02,North,0,10.5,13.2,42,0.00,,CLR,0.00,VWS V14.01,2013-04-01 04:29:00,
2013-03-31 23:32:00,39.9,18.7,30.02,NNW,346,12.8,17.4,42,0.00,,CLR,0.00,VWS V14.01,2013-04-01 04:32:00,
2013-03-31 23:34:00,40.1,18.9,30.02,North,357,12.8,17.4,42,0.00,,CLR,0.00,VWS V14.01,2013-04-01 04:34:00,
2013-03-31 23:35:00,39.9,18.7,30.02,NNW,335,13.2,15.4,42,0.00,,CLR,0.00,VWS V14.01,2013-04-01 04:35:00,
2013-03-31 23:37:00,39.9,18.7,30.02,North,0,13.2,15.4,42,0.00,,CLR,0.00,VWS V14.01,2013-04-01 04:37:00,
2013-03-31 23:40:00,39.9,18.7,29.99,North,6,16.3,16.3,42,0.00,,CLR,0.00,VWS V14.01,2013-04-01 04:40:00,
2013-03-31 23:42:00,40.1,18.9,29.99,North,353,15.0,20.1,42,0.00,,CLR,0.00,VWS V14.01,2013-04-01 04:42:00,
2013-03-31 23:45:00,39.9,18.7,29.99,North,6,16.3,16.3,42,0.00,,CLR,0.00,VWS V14.01,2013-04-01 04:45:00,
2013-03-31 23:48:00,39.9,18.7,29.99,North,357,12.8,12.8,42,0.00,,CLR,0.00,VWS V14.01,2013-04-01 04:48:00,
2013-03-31 23:50:00,39.9,18.7,29.99,North,353,10.1,13.2,42,0.00,,CLR,0.00,VWS V14.01,2013-04-01 04:50:00,
2013-03-31 23:51:00,39.9,18.7,29.99,North,349,10.5,12.3,42,0.00,,CLR,0.00,VWS V14.01,2013-04-01 04:51:00,
2013-03-31 23:53:00,39.9,18.7,29.99,North,7,10.5,11.0,42,0.00,,CLR,0.00,VWS V14.01,2013-04-01 04:53:00,
2013-03-31 23:55:00,39.7,18.5,29.99,North,357,11.9,11.9,42,0.00,,CLR,0.00,VWS V14.01,2013-04-01 04:55:00,
2013-03-31 23:56:00,39.7,18.5,29.99,NNW,344,12.8,12.8,42,0.00,,CLR,0.00,VWS V14.01,2013-04-01 04:56:00,
2013-03-31 23:57:00,39.7,18.5,29.99,North,353,10.5,14.5,42,0.00,,CLR,0.00,VWS V14.01,2013-04-01 04:57:00,
2013-03-31 23:58:00,39.7,18.5,29.99,North,0,14.5,15.4,42,0.00,,CLR,0.00,VWS V14.01,2013-04-01 04:58:00,